<?xml version='1.0' encoding='UTF-8'?><gpx version="1.1" creator="JPX - https://github.com/jenetics/jpx" xmlns="http://www.topografix.com/GPX/1/1"><trk><trkseg><trkpt lat="44.36054318766462" lon="10.873319486412674"><ele>545.0</ele><time>2026-04-11T15:10:42.998Z</time></trkpt><trkpt lat="44.36058278888769" lon="10.873199424469401"><ele>545.0</ele><time>2026-04-11T15:11:15.999Z</time></trkpt><trkpt lat="44.360647009028895" lon="10.87318050496312"><ele>545.0</ele><time>2026-04-11T15:12:22.999Z</time></trkpt><trkpt lat="44.36061506779856" lon="10.873325746989686"><ele>545.0</ele><time>2026-04-11T15:25:49Z</time></trkpt><trkpt lat="44.360572389560566" lon="10.873260443416493"><ele>545.0</ele><time>2026-04-11T15:26:49.999Z</time></trkpt><trkpt lat="44.3605134798694" lon="10.873334084782343"><ele>545.0</ele><time>2026-04-11T15:26:51.999Z</time></trkpt><trkpt lat="44.36043890081853" lon="10.873357108666854"><ele>541.8</ele><time>2026-04-11T15:26:54.999Z</time></trkpt><trkpt lat="44.360405858417145" lon="10.873250649664003"><ele>538.6</ele><time>2026-04-11T15:26:56.999Z</time></trkpt><trkpt lat="44.36037824600654" lon="10.873140993467686"><ele>535.4</ele><time>2026-04-11T15:26:58.999Z</time></trkpt><trkpt lat="44.36031991284979" lon="10.873024354852518"><ele>532.2</ele><time>2026-04-11T15:27:00.999Z</time></trkpt><trkpt lat="44.360280781830944" lon="10.872897221644266"><ele>529.0</ele><time>2026-04-11T15:27:01.999Z</time></trkpt><trkpt lat="44.36023171082033" lon="10.87279340035485"><ele>529.0</ele><time>2026-04-11T15:27:02.999Z</time></trkpt><trkpt lat="44.36018180508644" lon="10.87268638339212"><ele>529.0</ele><time>2026-04-11T15:27:03.999Z</time></trkpt><trkpt lat="44.360141209612166" lon="10.872611557951924"><ele>529.0</ele><time>2026-04-11T15:27:04.999Z</time></trkpt><trkpt lat="44.36005990402248" lon="10.872516504285903"><ele>529.0</ele><time>2026-04-11T15:27:06.999Z</time></trkpt><trkpt lat="44.35998829566026" lon="10.872371468638038"><ele>529.0</ele><time>2026-04-11T15:27:07.999Z</time></trkpt><trkpt lat="44.35993128126413" lon="10.872305692004156"><ele>529.1666666666667</ele><time>2026-04-11T15:27:08.999Z</time></trkpt><trkpt lat="44.35988256251554" lon="10.872224023127359"><ele>529.3333333333334</ele><time>2026-04-11T15:27:09.998Z</time></trkpt><trkpt lat="44.359841998916025" lon="10.872131415007914"><ele>529.5</ele><time>2026-04-11T15:27:10.998Z</time></trkpt><trkpt lat="44.359808120082256" lon="10.872028791855595"><ele>529.6666666666666</ele><time>2026-04-11T15:27:11.998Z</time></trkpt><trkpt lat="44.359791263808845" lon="10.871916722188928"><ele>529.8333333333333</ele><time>2026-04-11T15:27:12.998Z</time></trkpt><trkpt lat="44.35978125115279" lon="10.871809469137014"><ele>530.0</ele><time>2026-04-11T15:27:13.998Z</time></trkpt><trkpt lat="44.35977714759648" lon="10.87171039671353"><ele>531.5</ele><time>2026-04-11T15:27:14.998Z</time></trkpt><trkpt lat="44.35978309056672" lon="10.871608559920178"><ele>533.0</ele><time>2026-04-11T15:27:15.998Z</time></trkpt><trkpt lat="44.35979751580281" lon="10.871475128297826"><ele>534.5</ele><time>2026-04-11T15:27:17.998Z</time></trkpt><trkpt lat="44.35976054055053" lon="10.871345560384121"><ele>536.0</ele><time>2026-04-11T15:27:19.998Z</time></trkpt><trkpt lat="44.35967531372841" lon="10.871278167885148"><ele>537.5</ele><time>2026-04-11T15:27:21.998Z</time></trkpt><trkpt lat="44.359608655111984" lon="10.871226674411503"><ele>539.0</ele><time>2026-04-11T15:27:22.998Z</time></trkpt><trkpt lat="44.35954480631155" lon="10.87121033255567"><ele>539.4</ele><time>2026-04-11T15:27:23.998Z</time></trkpt><trkpt lat="44.35940848345986" lon="10.871233217316565"><ele>539.8</ele><time>2026-04-11T15:27:25.998Z</time></trkpt><trkpt lat="44.35933862214293" lon="10.871270676982206"><ele>540.2</ele><time>2026-04-11T15:27:26.998Z</time></trkpt><trkpt lat="44.35920549074624" lon="10.871305343085794"><ele>540.6</ele><time>2026-04-11T15:27:28.998Z</time></trkpt><trkpt lat="44.359136405548206" lon="10.871298051636733"><ele>541.0</ele><time>2026-04-11T15:27:29.998Z</time></trkpt><trkpt lat="44.35906729630324" lon="10.87131656121257"><ele>541.0</ele><time>2026-04-11T15:27:30.998Z</time></trkpt><trkpt lat="44.358928059667896" lon="10.871375723286326"><ele>541.0</ele><time>2026-04-11T15:27:32.998Z</time></trkpt><trkpt lat="44.358821411727995" lon="10.871423586365404"><ele>541.0</ele><time>2026-04-11T15:27:34.998Z</time></trkpt><trkpt lat="44.358751511037006" lon="10.871410998266077"><ele>541.0</ele><time>2026-04-11T15:27:36.998Z</time></trkpt><trkpt lat="44.35869171875208" lon="10.871327409566673"><ele>541.0</ele><time>2026-04-11T15:27:39Z</time></trkpt><trkpt lat="44.35862122868975" lon="10.871197799411645"><ele>544.5</ele><time>2026-04-11T15:27:41Z</time></trkpt><trkpt lat="44.35853740602381" lon="10.871094963403763"><ele>548.0</ele><time>2026-04-11T15:27:43Z</time></trkpt><trkpt lat="44.358479226612616" lon="10.870985119092795"><ele>551.5</ele><time>2026-04-11T15:27:45Z</time></trkpt><trkpt lat="44.358404734067165" lon="10.870847523598359"><ele>555.0</ele><time>2026-04-11T15:27:47Z</time></trkpt><trkpt lat="44.358330675373075" lon="10.870717873103672"><ele>557.0</ele><time>2026-04-11T15:27:49Z</time></trkpt><trkpt lat="44.358246136651786" lon="10.870606530688258"><ele>559.0</ele><time>2026-04-11T15:27:51Z</time></trkpt><trkpt lat="44.35815926875049" lon="10.870561593771198"><ele>561.0</ele><time>2026-04-11T15:27:52.999Z</time></trkpt><trkpt lat="44.358087616841345" lon="10.870587857114232"><ele>563.0</ele><time>2026-04-11T15:27:54.999Z</time></trkpt><trkpt lat="44.35801735540362" lon="10.870695204124166"><ele>565.0</ele><time>2026-04-11T15:27:56.999Z</time></trkpt><trkpt lat="44.35797292793113" lon="10.870765401862942"><ele>566.3333333333334</ele><time>2026-04-11T15:27:59.999Z</time></trkpt><trkpt lat="44.35792377572783" lon="10.870702616519429"><ele>567.6666666666667</ele><time>2026-04-11T15:28:02.999Z</time></trkpt><trkpt lat="44.35787686892473" lon="10.870613849366205"><ele>569.0</ele><time>2026-04-11T15:28:03.999Z</time></trkpt><trkpt lat="44.35782494312405" lon="10.870516047925957"><ele>570.3333333333334</ele><time>2026-04-11T15:28:04.999Z</time></trkpt><trkpt lat="44.35777873153755" lon="10.870416340710157"><ele>571.6666666666666</ele><time>2026-04-11T15:28:05.999Z</time></trkpt><trkpt lat="44.357719083514674" lon="10.870322159685925"><ele>573.0</ele><time>2026-04-11T15:28:06.999Z</time></trkpt><trkpt lat="44.357663579186855" lon="10.870235323865648"><ele>573.0</ele><time>2026-04-11T15:28:07.999Z</time></trkpt><trkpt lat="44.3575977448603" lon="10.870132472326288"><ele>573.0</ele><time>2026-04-11T15:28:08.999Z</time></trkpt><trkpt lat="44.35753571028668" lon="10.870050568110395"><ele>573.0</ele><time>2026-04-11T15:28:09.999Z</time></trkpt><trkpt lat="44.35743516963498" lon="10.86996786292628"><ele>573.0</ele><time>2026-04-11T15:28:11.999Z</time></trkpt><trkpt lat="44.35734713462166" lon="10.869902389139694"><ele>573.0</ele><time>2026-04-11T15:28:13.999Z</time></trkpt><trkpt lat="44.35725352243227" lon="10.87003158261659"><ele>577.3333333333334</ele><time>2026-04-11T15:28:14.999Z</time></trkpt><trkpt lat="44.357192442563175" lon="10.870062044061987"><ele>581.6666666666666</ele><time>2026-04-11T15:28:15.999Z</time></trkpt><trkpt lat="44.3570755991008" lon="10.870034351615097"><ele>586.0</ele><time>2026-04-11T15:28:17.999Z</time></trkpt><trkpt lat="44.357002414297085" lon="10.870023831643284"><ele>590.3333333333333</ele><time>2026-04-11T15:28:18.999Z</time></trkpt><trkpt lat="44.356914003759684" lon="10.87000110334871"><ele>594.6666666666666</ele><time>2026-04-11T15:28:19.999Z</time></trkpt><trkpt lat="44.356822896424994" lon="10.869977986014542"><ele>599.0</ele><time>2026-04-11T15:28:20.999Z</time></trkpt><trkpt lat="44.356743569889275" lon="10.869989540499189"><ele>599.0</ele><time>2026-04-11T15:28:21.999Z</time></trkpt><trkpt lat="44.35665539213174" lon="10.869979936742897"><ele>599.0</ele><time>2026-04-11T15:28:22.999Z</time></trkpt><trkpt lat="44.35657277148761" lon="10.8699934932671"><ele>599.0</ele><time>2026-04-11T15:28:23.999Z</time></trkpt><trkpt lat="44.35650937757287" lon="10.870015035387718"><ele>599.0</ele><time>2026-04-11T15:28:24.999Z</time></trkpt><trkpt lat="44.35640793643305" lon="10.870029244713553"><ele>599.0</ele><time>2026-04-11T15:28:26.999Z</time></trkpt><trkpt lat="44.35630821697862" lon="10.87010373540056"><ele>596.2</ele><time>2026-04-11T15:28:28.999Z</time></trkpt><trkpt lat="44.35624863852059" lon="10.870316469835068"><ele>593.4</ele><time>2026-04-11T15:28:29.999Z</time></trkpt><trkpt lat="44.35617057844673" lon="10.870336499603996"><ele>590.6</ele><time>2026-04-11T15:28:30.999Z</time></trkpt><trkpt lat="44.35606683541086" lon="10.870355090738817"><ele>587.8</ele><time>2026-04-11T15:28:31.999Z</time></trkpt><trkpt lat="44.35598663766041" lon="10.870367016806288"><ele>585.0</ele><time>2026-04-11T15:28:32.999Z</time></trkpt><trkpt lat="44.35588356806045" lon="10.8703935912766"><ele>585.0</ele><time>2026-04-11T15:28:34.999Z</time></trkpt><trkpt lat="44.35579124266412" lon="10.87041877580181"><ele>585.0</ele><time>2026-04-11T15:28:36.999Z</time></trkpt><trkpt lat="44.35568772663547" lon="10.870446670468139"><ele>585.0</ele><time>2026-04-11T15:28:38.999Z</time></trkpt><trkpt lat="44.35559488473545" lon="10.870471688745631"><ele>585.0</ele><time>2026-04-11T15:28:40.999Z</time></trkpt><trkpt lat="44.355479485259266" lon="10.870473140580168"><ele>585.0</ele><time>2026-04-11T15:28:42.999Z</time></trkpt><trkpt lat="44.355343163455885" lon="10.869936885204648"><ele>587.1666666666666</ele><time>2026-04-11T15:28:43.999Z</time></trkpt><trkpt lat="44.35525102974838" lon="10.869953320501793"><ele>589.3333333333334</ele><time>2026-04-11T15:28:44.999Z</time></trkpt><trkpt lat="44.35518469933278" lon="10.869958910489599"><ele>591.5</ele><time>2026-04-11T15:28:45.999Z</time></trkpt><trkpt lat="44.35512197323603" lon="10.869950076454256"><ele>593.6666666666667</ele><time>2026-04-11T15:28:46.999Z</time></trkpt><trkpt lat="44.35501530796065" lon="10.869974012377208"><ele>595.8333333333334</ele><time>2026-04-11T15:28:48.999Z</time></trkpt><trkpt lat="44.354971422712524" lon="10.870038731706815"><ele>598.0</ele><time>2026-04-11T15:28:49.999Z</time></trkpt><trkpt lat="44.354917088446605" lon="10.87010753774307"><ele>593.1999999999999</ele><time>2026-04-11T15:28:50.999Z</time></trkpt><trkpt lat="44.35479843615078" lon="10.870221430673071"><ele>588.4</ele><time>2026-04-11T15:28:52.999Z</time></trkpt><trkpt lat="44.35474300452744" lon="10.870312823169275"><ele>583.5999999999999</ele><time>2026-04-11T15:28:54.999Z</time></trkpt><trkpt lat="44.35473434544339" lon="10.870456091135958"><ele>578.8</ele><time>2026-04-11T15:28:56.999Z</time></trkpt><trkpt lat="44.35470329665874" lon="10.870605497038756"><ele>574.0</ele><time>2026-04-11T15:28:58.999Z</time></trkpt><trkpt lat="44.35465987649815" lon="10.870740709549102"><ele>573.2</ele><time>2026-04-11T15:29:00.999Z</time></trkpt><trkpt lat="44.35462944082937" lon="10.870825199748808"><ele>572.4</ele><time>2026-04-11T15:29:01.999Z</time></trkpt><trkpt lat="44.354548414487304" lon="10.87095828971532"><ele>571.6</ele><time>2026-04-11T15:29:03.999Z</time></trkpt><trkpt lat="44.35449852112154" lon="10.87102709095366"><ele>570.8</ele><time>2026-04-11T15:29:04.999Z</time></trkpt><trkpt lat="44.354399918515696" lon="10.871126023368618"><ele>570.0</ele><time>2026-04-11T15:29:06.998Z</time></trkpt><trkpt lat="44.354334815195074" lon="10.871239168775112"><ele>567.2</ele><time>2026-04-11T15:29:08.998Z</time></trkpt><trkpt lat="44.35430186615492" lon="10.871364176018204"><ele>564.4</ele><time>2026-04-11T15:29:10.998Z</time></trkpt><trkpt lat="44.35423764697898" lon="10.871399930145733"><ele>561.6</ele><time>2026-04-11T15:29:12.998Z</time></trkpt><trkpt lat="44.354183866627565" lon="10.871244298918192"><ele>558.8</ele><time>2026-04-11T15:29:15.998Z</time></trkpt><trkpt lat="44.35414877979904" lon="10.871109160315044"><ele>556.0</ele><time>2026-04-11T15:29:17.998Z</time></trkpt><trkpt lat="44.35406745995288" lon="10.871046979138123"><ele>556.0</ele><time>2026-04-11T15:29:19.998Z</time></trkpt><trkpt lat="44.354008834819716" lon="10.871005699894928"><ele>556.0</ele><time>2026-04-11T15:29:21.998Z</time></trkpt><trkpt lat="44.353916365300776" lon="10.870892745241697"><ele>556.0</ele><time>2026-04-11T15:29:23.998Z</time></trkpt><trkpt lat="44.353861311540264" lon="10.870824901324921"><ele>556.0</ele><time>2026-04-11T15:29:25.998Z</time></trkpt><trkpt lat="44.35378412596552" lon="10.870799935909771"><ele>556.0</ele><time>2026-04-11T15:29:27.998Z</time></trkpt><trkpt lat="44.35368639313526" lon="10.870837801565438"><ele>556.0</ele><time>2026-04-11T15:29:29.998Z</time></trkpt><trkpt lat="44.353668395773724" lon="10.87096740960254"><ele>553.0</ele><time>2026-04-11T15:29:32.998Z</time></trkpt><trkpt lat="44.35366511474022" lon="10.871066073069112"><ele>550.0</ele><time>2026-04-11T15:29:34.998Z</time></trkpt><trkpt lat="44.35360083248912" lon="10.87112511920343"><ele>547.0</ele><time>2026-04-11T15:29:36.998Z</time></trkpt><trkpt lat="44.35354171359235" lon="10.87116972670456"><ele>544.0</ele><time>2026-04-11T15:29:37.998Z</time></trkpt><trkpt lat="44.353470875911434" lon="10.871287878133723"><ele>541.0</ele><time>2026-04-11T15:29:39.998Z</time></trkpt><trkpt lat="44.35341196007011" lon="10.871377124161656"><ele>538.0</ele><time>2026-04-11T15:29:41.998Z</time></trkpt><trkpt lat="44.3534140072237" lon="10.871501272290804"><ele>538.0</ele><time>2026-04-11T15:29:43.999Z</time></trkpt><trkpt lat="44.35350018062021" lon="10.87157897478451"><ele>538.0</ele><time>2026-04-11T15:29:45.999Z</time></trkpt><trkpt lat="44.35350405723091" lon="10.871697494820452"><ele>538.0</ele><time>2026-04-11T15:29:47.999Z</time></trkpt><trkpt lat="44.353512497040725" lon="10.871788829182693"><ele>538.0</ele><time>2026-04-11T15:29:49.999Z</time></trkpt><trkpt lat="44.353542327108535" lon="10.871932981701349"><ele>538.0</ele><time>2026-04-11T15:29:51.999Z</time></trkpt><trkpt lat="44.35354974655844" lon="10.87206574849256"><ele>535.8333333333334</ele><time>2026-04-11T15:29:53.999Z</time></trkpt><trkpt lat="44.35355293531445" lon="10.872191517073729"><ele>533.6666666666667</ele><time>2026-04-11T15:29:55.999Z</time></trkpt><trkpt lat="44.35353492907083" lon="10.872310572920224"><ele>531.5</ele><time>2026-04-11T15:29:57.999Z</time></trkpt><trkpt lat="44.353495196024426" lon="10.872396021231324"><ele>529.3333333333334</ele><time>2026-04-11T15:29:59.999Z</time></trkpt><trkpt lat="44.353427768261156" lon="10.872469005962477"><ele>527.1666666666666</ele><time>2026-04-11T15:30:01.999Z</time></trkpt><trkpt lat="44.35336886784844" lon="10.872532965354049"><ele>525.0</ele><time>2026-04-11T15:30:03.999Z</time></trkpt><trkpt lat="44.35329949607209" lon="10.872543054456218"><ele>525.0</ele><time>2026-04-11T15:30:05.999Z</time></trkpt><trkpt lat="44.3532110248725" lon="10.872556270245873"><ele>525.0</ele><time>2026-04-11T15:30:07.999Z</time></trkpt><trkpt lat="44.35312052217472" lon="10.872578457478674"><ele>525.0</ele><time>2026-04-11T15:30:09.999Z</time></trkpt><trkpt lat="44.3530536894012" lon="10.872624875514944"><ele>525.0</ele><time>2026-04-11T15:30:11.999Z</time></trkpt><trkpt lat="44.35299984727437" lon="10.872686922108272"><ele>525.0</ele><time>2026-04-11T15:30:14.999Z</time></trkpt><trkpt lat="44.35298304042128" lon="10.872782202919199"><ele>525.0</ele><time>2026-04-11T15:30:16.999Z</time></trkpt><trkpt lat="44.352985542583426" lon="10.872872704290812"><ele>523.3333333333334</ele><time>2026-04-11T15:30:18.999Z</time></trkpt><trkpt lat="44.35293294049382" lon="10.872978692655808"><ele>521.6666666666666</ele><time>2026-04-11T15:30:21.999Z</time></trkpt><trkpt lat="44.35285024866801" lon="10.872998213572936"><ele>520.0</ele><time>2026-04-11T15:30:25.999Z</time></trkpt><trkpt lat="44.35276316843017" lon="10.872937419258584"><ele>518.3333333333333</ele><time>2026-04-11T15:30:28.999Z</time></trkpt><trkpt lat="44.35269963970762" lon="10.872859909524935"><ele>516.6666666666666</ele><time>2026-04-11T15:30:30.999Z</time></trkpt><trkpt lat="44.352658482035224" lon="10.872940504712785"><ele>515.0</ele><time>2026-04-11T15:30:33.999Z</time></trkpt><trkpt lat="44.35266256163191" lon="10.873034930308867"><ele>515.0</ele><time>2026-04-11T15:30:35.999Z</time></trkpt><trkpt lat="44.352671759384535" lon="10.873146018148374"><ele>515.0</ele><time>2026-04-11T15:30:37.999Z</time></trkpt><trkpt lat="44.35272239691785" lon="10.87322725322657"><ele>515.0</ele><time>2026-04-11T15:30:39.999Z</time></trkpt><trkpt lat="44.35279497575023" lon="10.873330424182651"><ele>515.0</ele><time>2026-04-11T15:30:42.999Z</time></trkpt><trkpt lat="44.35281580705617" lon="10.87343730369373"><ele>515.0</ele><time>2026-04-11T15:30:44.999Z</time></trkpt><trkpt lat="44.35280367825086" lon="10.873573046405308"><ele>515.0</ele><time>2026-04-11T15:30:46.999Z</time></trkpt><trkpt lat="44.35277724984334" lon="10.873671061688423"><ele>514.5</ele><time>2026-04-11T15:30:48.999Z</time></trkpt><trkpt lat="44.35272238340376" lon="10.873735203150238"><ele>514.0</ele><time>2026-04-11T15:30:50.999Z</time></trkpt><trkpt lat="44.35267378938056" lon="10.873832548529201"><ele>513.5</ele><time>2026-04-11T15:30:54.999Z</time></trkpt><trkpt lat="44.35267566331442" lon="10.873940819294328"><ele>513.0</ele><time>2026-04-11T15:30:57.999Z</time></trkpt><trkpt lat="44.35271855994789" lon="10.874072335791299"><ele>512.5</ele><time>2026-04-11T15:31:00.999Z</time></trkpt><trkpt lat="44.352755309990926" lon="10.874191640057049"><ele>512.0</ele><time>2026-04-11T15:31:02.999Z</time></trkpt><trkpt lat="44.352732450834736" lon="10.874291611172655"><ele>511.8333333333333</ele><time>2026-04-11T15:31:05.999Z</time></trkpt><trkpt lat="44.352709352414514" lon="10.874411706016431"><ele>511.66666666666663</ele><time>2026-04-11T15:31:07.999Z</time></trkpt><trkpt lat="44.352726962546924" lon="10.874530573756715"><ele>511.5</ele><time>2026-04-11T15:31:09.998Z</time></trkpt><trkpt lat="44.35271890400383" lon="10.874643877787218"><ele>511.33333333333337</ele><time>2026-04-11T15:31:11.998Z</time></trkpt><trkpt lat="44.3526498060623" lon="10.874684584847149"><ele>511.1666666666667</ele><time>2026-04-11T15:31:13.998Z</time></trkpt><trkpt lat="44.35258206490846" lon="10.874721400338503"><ele>511.0</ele><time>2026-04-11T15:31:15.998Z</time></trkpt><trkpt lat="44.35257433945046" lon="10.874810948109273"><ele>511.0</ele><time>2026-04-11T15:31:17.998Z</time></trkpt><trkpt lat="44.3525789287144" lon="10.874968776078507"><ele>511.0</ele><time>2026-04-11T15:31:20.998Z</time></trkpt><trkpt lat="44.35255595471319" lon="10.875080198215928"><ele>511.0</ele><time>2026-04-11T15:31:22.998Z</time></trkpt><trkpt lat="44.35255309685601" lon="10.875169036564746"><ele>511.0</ele><time>2026-04-11T15:31:24.998Z</time></trkpt><trkpt lat="44.352577925824754" lon="10.87526182526015"><ele>511.0</ele><time>2026-04-11T15:31:26.998Z</time></trkpt><trkpt lat="44.35256192662187" lon="10.875446528607343"><ele>512.0</ele><time>2026-04-11T15:31:30.998Z</time></trkpt><trkpt lat="44.35256692035501" lon="10.875555700555577"><ele>513.0</ele><time>2026-04-11T15:31:32.998Z</time></trkpt><trkpt lat="44.352545225594724" lon="10.875694029950347"><ele>514.0</ele><time>2026-04-11T15:31:34.998Z</time></trkpt><trkpt lat="44.35248449046325" lon="10.875771474042553"><ele>515.0</ele><time>2026-04-11T15:31:36.998Z</time></trkpt><trkpt lat="44.35242624172249" lon="10.875854051490993"><ele>516.0</ele><time>2026-04-11T15:31:39.998Z</time></trkpt><trkpt lat="44.35238931913438" lon="10.875989222928958"><ele>517.0</ele><time>2026-04-11T15:31:42.999Z</time></trkpt><trkpt lat="44.3523979530454" lon="10.876100408968195"><ele>518.6666666666667</ele><time>2026-04-11T15:31:44.999Z</time></trkpt><trkpt lat="44.35244567093683" lon="10.876208548266694"><ele>520.3333333333334</ele><time>2026-04-11T15:31:47.999Z</time></trkpt><trkpt lat="44.35248956647669" lon="10.876308109348921"><ele>522.0</ele><time>2026-04-11T15:31:50.001Z</time></trkpt><trkpt lat="44.35250317691421" lon="10.876421878137295"><ele>523.6666666666666</ele><time>2026-04-11T15:31:52Z</time></trkpt><trkpt lat="44.35248257788252" lon="10.876509605084163"><ele>525.3333333333333</ele><time>2026-04-11T15:31:54Z</time></trkpt><trkpt lat="44.35245072240034" lon="10.876600674446744"><ele>527.0</ele><time>2026-04-11T15:31:56Z</time></trkpt><trkpt lat="44.3524126549191" lon="10.876715661514865"><ele>527.8333333333333</ele><time>2026-04-11T15:31:59Z</time></trkpt><trkpt lat="44.3524072680151" lon="10.876803493394439"><ele>528.6666666666666</ele><time>2026-04-11T15:32:01Z</time></trkpt><trkpt lat="44.35243584481459" lon="10.876930262699"><ele>529.5</ele><time>2026-04-11T15:32:04Z</time></trkpt><trkpt lat="44.35243150593748" lon="10.87702786445363"><ele>530.3333333333334</ele><time>2026-04-11T15:32:06Z</time></trkpt><trkpt lat="44.352428734813344" lon="10.877135145721214"><ele>531.1666666666667</ele><time>2026-04-11T15:32:08Z</time></trkpt><trkpt lat="44.35244750489204" lon="10.877267846765287"><ele>532.0</ele><time>2026-04-11T15:32:10Z</time></trkpt><trkpt lat="44.352484146241146" lon="10.877379258699063"><ele>532.0</ele><time>2026-04-11T15:32:12Z</time></trkpt><trkpt lat="44.35246803292414" lon="10.87749454212892"><ele>532.0</ele><time>2026-04-11T15:32:14Z</time></trkpt><trkpt lat="44.35240588794657" lon="10.877590442935858"><ele>532.0</ele><time>2026-04-11T15:32:16Z</time></trkpt><trkpt lat="44.35227241258326" lon="10.877602816110242"><ele>532.0</ele><time>2026-04-11T15:32:19Z</time></trkpt><trkpt lat="44.35218245220807" lon="10.877597369351816"><ele>532.0</ele><time>2026-04-11T15:32:21Z</time></trkpt><trkpt lat="44.35207023421896" lon="10.877611309116592"><ele>531.6</ele><time>2026-04-11T15:32:23Z</time></trkpt><trkpt lat="44.35203518893213" lon="10.87770091973121"><ele>531.2</ele><time>2026-04-11T15:32:25Z</time></trkpt><trkpt lat="44.35208552066204" lon="10.877837540878893"><ele>530.8</ele><time>2026-04-11T15:32:27Z</time></trkpt><trkpt lat="44.352105749380655" lon="10.877960718602218"><ele>530.4</ele><time>2026-04-11T15:32:28Z</time></trkpt><trkpt lat="44.3521380500698" lon="10.878103828093982"><ele>530.0</ele><time>2026-04-11T15:32:30Z</time></trkpt><trkpt lat="44.35221003092583" lon="10.87811312850548"><ele>530.0</ele><time>2026-04-11T15:32:33Z</time></trkpt><trkpt lat="44.35221411114387" lon="10.878011387537846"><ele>530.0</ele><time>2026-04-11T15:32:36Z</time></trkpt><trkpt lat="44.35214072046275" lon="10.877912860556934"><ele>530.0</ele><time>2026-04-11T15:32:38Z</time></trkpt><trkpt lat="44.35203737303245" lon="10.877876651681229"><ele>530.0</ele><time>2026-04-11T15:32:40Z</time></trkpt><trkpt lat="44.3520778257384" lon="10.87796989325315"><ele>530.0</ele><time>2026-04-11T15:32:42Z</time></trkpt><trkpt lat="44.3521000924158" lon="10.878079729461026"><ele>530.0</ele><time>2026-04-11T15:32:45Z</time></trkpt><trkpt lat="44.35215958758696" lon="10.878111188615502"><ele>530.0</ele><time>2026-04-11T15:32:56Z</time></trkpt><trkpt lat="44.35225743458356" lon="10.878091169671423"><ele>530.0</ele><time>2026-04-11T15:32:59Z</time></trkpt><trkpt lat="44.35231431857145" lon="10.878163765024576"><ele>530.0</ele><time>2026-04-11T15:33:02Z</time></trkpt><trkpt lat="44.352322653408265" lon="10.878263701143364"><ele>530.0</ele><time>2026-04-11T15:33:04Z</time></trkpt><trkpt lat="44.352297037407254" lon="10.87835213325102"><ele>530.0</ele><time>2026-04-11T15:33:06Z</time></trkpt><trkpt lat="44.352256040271186" lon="10.878447007708374"><ele>530.0</ele><time>2026-04-11T15:33:08Z</time></trkpt><trkpt lat="44.35221414402154" lon="10.878527367774321"><ele>535.6</ele><time>2026-04-11T15:33:09.999Z</time></trkpt><trkpt lat="44.352147350099095" lon="10.878666897404605"><ele>541.2</ele><time>2026-04-11T15:33:11.999Z</time></trkpt><trkpt lat="44.35210539284404" lon="10.878756928880382"><ele>546.8</ele><time>2026-04-11T15:33:12.999Z</time></trkpt><trkpt lat="44.35206763196876" lon="10.878834477055971"><ele>552.4</ele><time>2026-04-11T15:33:13.999Z</time></trkpt><trkpt lat="44.35205679875097" lon="10.879065565692509"><ele>558.0</ele><time>2026-04-11T15:33:15.999Z</time></trkpt><trkpt lat="44.352072848770476" lon="10.879199589175835"><ele>556.4</ele><time>2026-04-11T15:33:16.999Z</time></trkpt><trkpt lat="44.35208972868609" lon="10.87932424648499"><ele>554.8</ele><time>2026-04-11T15:33:17.999Z</time></trkpt><trkpt lat="44.35207641963489" lon="10.879498631365122"><ele>553.2</ele><time>2026-04-11T15:33:18.999Z</time></trkpt><trkpt lat="44.35207515608495" lon="10.879633343172571"><ele>551.6</ele><time>2026-04-11T15:33:19.999Z</time></trkpt><trkpt lat="44.352068565965716" lon="10.879755677910245"><ele>550.0</ele><time>2026-04-11T15:33:20.999Z</time></trkpt><trkpt lat="44.35199831814701" lon="10.879825570230299"><ele>550.0</ele><time>2026-04-11T15:33:22.999Z</time></trkpt><trkpt lat="44.3519224736822" lon="10.879837040691493"><ele>550.0</ele><time>2026-04-11T15:33:24.999Z</time></trkpt><trkpt lat="44.35186090998042" lon="10.87979169043729"><ele>550.0</ele><time>2026-04-11T15:33:26.999Z</time></trkpt><trkpt lat="44.35176175460476" lon="10.879695791446059"><ele>550.0</ele><time>2026-04-11T15:33:28.999Z</time></trkpt><trkpt lat="44.351683472725" lon="10.879649600198896"><ele>550.0</ele><time>2026-04-11T15:33:29.999Z</time></trkpt><trkpt lat="44.351650053187086" lon="10.879758347852873"><ele>550.0</ele><time>2026-04-11T15:33:31.999Z</time></trkpt><trkpt lat="44.35165450826359" lon="10.879912236376244"><ele>550.0</ele><time>2026-04-11T15:33:33.999Z</time></trkpt><trkpt lat="44.35162788671673" lon="10.880026411075953"><ele>550.0</ele><time>2026-04-11T15:33:35.999Z</time></trkpt><trkpt lat="44.35157493873372" lon="10.880080568974565"><ele>550.0</ele><time>2026-04-11T15:33:37.999Z</time></trkpt><trkpt lat="44.35150041990591" lon="10.880061937593956"><ele>550.0</ele><time>2026-04-11T15:33:40.999Z</time></trkpt><trkpt lat="44.35149582065347" lon="10.880180304521694"><ele>550.0</ele><time>2026-04-11T15:33:43.999Z</time></trkpt><trkpt lat="44.35146844374036" lon="10.880274841898762"><ele>550.0</ele><time>2026-04-11T15:33:45.999Z</time></trkpt><trkpt lat="44.351449456138724" lon="10.880371667473815"><ele>547.2</ele><time>2026-04-11T15:33:47.999Z</time></trkpt><trkpt lat="44.35144607816211" lon="10.880507999541392"><ele>544.4</ele><time>2026-04-11T15:33:49.999Z</time></trkpt><trkpt lat="44.35144267651435" lon="10.880653459535187"><ele>541.6</ele><time>2026-04-11T15:33:51.999Z</time></trkpt><trkpt lat="44.35143439817128" lon="10.880759666835015"><ele>538.8</ele><time>2026-04-11T15:33:53.999Z</time></trkpt><trkpt lat="44.351420124715474" lon="10.880876721264295"><ele>536.0</ele><time>2026-04-11T15:33:56Z</time></trkpt><trkpt lat="44.351398289124255" lon="10.880998387992113"><ele>535.8333333333333</ele><time>2026-04-11T15:33:59Z</time></trkpt><trkpt lat="44.35139390455531" lon="10.88109310695694"><ele>535.6666666666666</ele><time>2026-04-11T15:34:01Z</time></trkpt><trkpt lat="44.351378248145714" lon="10.88120901143179"><ele>535.5</ele><time>2026-04-11T15:34:03Z</time></trkpt><trkpt lat="44.35135442397215" lon="10.881305973757117"><ele>535.3333333333334</ele><time>2026-04-11T15:34:05Z</time></trkpt><trkpt lat="44.35130523654047" lon="10.881381722117423"><ele>535.1666666666667</ele><time>2026-04-11T15:34:07Z</time></trkpt><trkpt lat="44.351251498212584" lon="10.881458953659463"><ele>535.0</ele><time>2026-04-11T15:34:09Z</time></trkpt><trkpt lat="44.351193770116545" lon="10.881536900808428"><ele>535.0</ele><time>2026-04-11T15:34:11Z</time></trkpt><trkpt lat="44.3511955348168" lon="10.881637874126048"><ele>535.0</ele><time>2026-04-11T15:34:14Z</time></trkpt><trkpt lat="44.35120053601681" lon="10.88176854351242"><ele>535.0</ele><time>2026-04-11T15:34:18Z</time></trkpt><trkpt lat="44.35115850637444" lon="10.881874574916727"><ele>535.0</ele><time>2026-04-11T15:34:20Z</time></trkpt><trkpt lat="44.351108826947815" lon="10.881945322721876"><ele>535.0</ele><time>2026-04-11T15:34:22Z</time></trkpt><trkpt lat="44.351030911200134" lon="10.881998535745751"><ele>535.0</ele><time>2026-04-11T15:34:25Z</time></trkpt><trkpt lat="44.35096919511061" lon="10.882041435733598"><ele>530.6</ele><time>2026-04-11T15:34:28Z</time></trkpt><trkpt lat="44.35091156323983" lon="10.882127314122295"><ele>526.2</ele><time>2026-04-11T15:34:32Z</time></trkpt><trkpt lat="44.3508502573923" lon="10.88216403818874"><ele>521.8</ele><time>2026-04-11T15:35:13Z</time></trkpt><trkpt lat="44.350720406047316" lon="10.882180803342939"><ele>517.4</ele><time>2026-04-11T15:35:14.999Z</time></trkpt><trkpt lat="44.35063384800693" lon="10.882233302763686"><ele>513.0</ele><time>2026-04-11T15:35:16.999Z</time></trkpt><trkpt lat="44.35053354843041" lon="10.882283396432314"><ele>513.0</ele><time>2026-04-11T15:35:18.999Z</time></trkpt><trkpt lat="44.35045753685619" lon="10.882349375919238"><ele>513.0</ele><time>2026-04-11T15:35:20.999Z</time></trkpt><trkpt lat="44.35037573029317" lon="10.882341343033978"><ele>513.0</ele><time>2026-04-11T15:35:22.999Z</time></trkpt><trkpt lat="44.35029289184094" lon="10.882298507199458"><ele>513.0</ele><time>2026-04-11T15:35:25.999Z</time></trkpt><trkpt lat="44.35022170697121" lon="10.882287827547334"><ele>513.0</ele><time>2026-04-11T15:35:27.999Z</time></trkpt><trkpt lat="44.35014086117221" lon="10.882330675950717"><ele>513.0</ele><time>2026-04-11T15:35:29.999Z</time></trkpt><trkpt lat="44.350075671185735" lon="10.882407092464703"><ele>513.0</ele><time>2026-04-11T15:35:31.999Z</time></trkpt><trkpt lat="44.350037118818015" lon="10.88249916391907"><ele>513.0</ele><time>2026-04-11T15:35:33.999Z</time></trkpt><trkpt lat="44.35000366644069" lon="10.882587552504638"><ele>513.0</ele><time>2026-04-11T15:35:34.999Z</time></trkpt><trkpt lat="44.34996575783419" lon="10.88272275737644"><ele>513.0</ele><time>2026-04-11T15:35:35.999Z</time></trkpt><trkpt lat="44.34990655694386" lon="10.882810935108063"><ele>513.0</ele><time>2026-04-11T15:35:37.999Z</time></trkpt><trkpt lat="44.34980903633347" lon="10.882808568128816"><ele>513.0</ele><time>2026-04-11T15:35:40.999Z</time></trkpt><trkpt lat="44.34974400309862" lon="10.882783398571481"><ele>511.1666666666667</ele><time>2026-04-11T15:35:42.999Z</time></trkpt><trkpt lat="44.349680361525095" lon="10.882744962575247"><ele>509.33333333333337</ele><time>2026-04-11T15:35:44.999Z</time></trkpt><trkpt lat="44.34960550267875" lon="10.882723011604986"><ele>507.5</ele><time>2026-04-11T15:35:46.999Z</time></trkpt><trkpt lat="44.34952233762506" lon="10.882778099971148"><ele>505.6666666666667</ele><time>2026-04-11T15:35:48.999Z</time></trkpt><trkpt lat="44.34946128231133" lon="10.88281025739963"><ele>503.83333333333337</ele><time>2026-04-11T15:35:50.999Z</time></trkpt><trkpt lat="44.349371473188576" lon="10.88288139048928"><ele>502.0</ele><time>2026-04-11T15:35:52.999Z</time></trkpt><trkpt lat="44.34929123588258" lon="10.88292069885499"><ele>502.0</ele><time>2026-04-11T15:35:54.999Z</time></trkpt><trkpt lat="44.349215679595034" lon="10.88295820452883"><ele>502.00000000000006</ele><time>2026-04-11T15:35:56.999Z</time></trkpt><trkpt lat="44.349134619053395" lon="10.883038405079029"><ele>502.00000000000006</ele><time>2026-04-11T15:35:58.999Z</time></trkpt><trkpt lat="44.34904519458695" lon="10.883132991065551"><ele>502.0</ele><time>2026-04-11T15:36:01Z</time></trkpt><trkpt lat="44.3489945414641" lon="10.88327124431767"><ele>502.0</ele><time>2026-04-11T15:36:03Z</time></trkpt><trkpt lat="44.34896280810493" lon="10.883431625601055"><ele>502.0</ele><time>2026-04-11T15:36:05Z</time></trkpt><trkpt lat="44.348943639354026" lon="10.88357041310014"><ele>502.00000000000006</ele><time>2026-04-11T15:36:07Z</time></trkpt><trkpt lat="44.34892241852184" lon="10.883705034678323"><ele>502.00000000000006</ele><time>2026-04-11T15:36:09Z</time></trkpt><trkpt lat="44.348922505849735" lon="10.883801961792809"><ele>502.0</ele><time>2026-04-11T15:36:11Z</time></trkpt><trkpt lat="44.34896438474666" lon="10.883912563534036"><ele>502.0</ele><time>2026-04-11T15:36:13Z</time></trkpt><trkpt lat="44.34881977559748" lon="10.883935039098162"><ele>503.6</ele><time>2026-04-11T15:36:15Z</time></trkpt><trkpt lat="44.34872783427565" lon="10.884003212234484"><ele>505.20000000000005</ele><time>2026-04-11T15:36:17Z</time></trkpt><trkpt lat="44.34863517847831" lon="10.88407202692316"><ele>506.8</ele><time>2026-04-11T15:36:19Z</time></trkpt><trkpt lat="44.34853249378279" lon="10.884085195566744"><ele>508.4</ele><time>2026-04-11T15:36:21Z</time></trkpt><trkpt lat="44.348427550986884" lon="10.88411396191238"><ele>510.0</ele><time>2026-04-11T15:36:24Z</time></trkpt><trkpt lat="44.34832681238701" lon="10.88408260645333"><ele>510.0</ele><time>2026-04-11T15:36:26Z</time></trkpt><trkpt lat="44.348231279983494" lon="10.884071086856757"><ele>510.0</ele><time>2026-04-11T15:36:28Z</time></trkpt><trkpt lat="44.34815204316773" lon="10.884123023659182"><ele>510.0</ele><time>2026-04-11T15:36:30Z</time></trkpt><trkpt lat="44.34810049721115" lon="10.884215388748801"><ele>510.0</ele><time>2026-04-11T15:36:32Z</time></trkpt><trkpt lat="44.34804458257143" lon="10.884309644978105"><ele>510.0</ele><time>2026-04-11T15:36:34Z</time></trkpt><trkpt lat="44.34794653329032" lon="10.884319805890483"><ele>514.8</ele><time>2026-04-11T15:36:36Z</time></trkpt><trkpt lat="44.34785475679124" lon="10.88433981919878"><ele>519.6</ele><time>2026-04-11T15:36:38Z</time></trkpt><trkpt lat="44.34780175805304" lon="10.884265658417766"><ele>524.4</ele><time>2026-04-11T15:36:40Z</time></trkpt><trkpt lat="44.34774445986422" lon="10.884140177574785"><ele>529.2</ele><time>2026-04-11T15:36:42Z</time></trkpt><trkpt lat="44.34767797053642" lon="10.884020104989268"><ele>534.0</ele><time>2026-04-11T15:36:44Z</time></trkpt><trkpt lat="44.347582770233586" lon="10.883920376817224"><ele>534.0</ele><time>2026-04-11T15:36:46Z</time></trkpt><trkpt lat="44.34750293209581" lon="10.883869128498207"><ele>534.0</ele><time>2026-04-11T15:36:48Z</time></trkpt><trkpt lat="44.34740884761943" lon="10.883839846831691"><ele>534.0</ele><time>2026-04-11T15:36:50Z</time></trkpt><trkpt lat="44.34733958759861" lon="10.883819735320449"><ele>534.0</ele><time>2026-04-11T15:36:52Z</time></trkpt><trkpt lat="44.347276909383105" lon="10.883785229555189"><ele>534.0</ele><time>2026-04-11T15:36:53Z</time></trkpt><trkpt lat="44.34718255179175" lon="10.883753861884669"><ele>534.0</ele><time>2026-04-11T15:36:54Z</time></trkpt><trkpt lat="44.34710178610643" lon="10.883729258087824"><ele>538.3333333333334</ele><time>2026-04-11T15:36:55Z</time></trkpt><trkpt lat="44.34703156366589" lon="10.883702422539884"><ele>542.6666666666666</ele><time>2026-04-11T15:36:56Z</time></trkpt><trkpt lat="44.346969920597346" lon="10.883671209382534"><ele>547.0</ele><time>2026-04-11T15:36:57Z</time></trkpt><trkpt lat="44.346853801262554" lon="10.883646562969798"><ele>551.3333333333333</ele><time>2026-04-11T15:36:59Z</time></trkpt><trkpt lat="44.34677443671987" lon="10.883635587472789"><ele>555.6666666666666</ele><time>2026-04-11T15:37:00Z</time></trkpt><trkpt lat="44.34666875876796" lon="10.883622211669763"><ele>560.0</ele><time>2026-04-11T15:37:01Z</time></trkpt><trkpt lat="44.34660065871708" lon="10.883610791334002"><ele>560.0</ele><time>2026-04-11T15:37:02Z</time></trkpt><trkpt lat="44.34649697852019" lon="10.883502258586004"><ele>560.0</ele><time>2026-04-11T15:37:04Z</time></trkpt><trkpt lat="44.34644073322954" lon="10.883451148462893"><ele>560.0</ele><time>2026-04-11T15:37:05Z</time></trkpt><trkpt lat="44.346376066956715" lon="10.883420521849265"><ele>560.0</ele><time>2026-04-11T15:37:06Z</time></trkpt><trkpt lat="44.346278387559565" lon="10.883373613091324"><ele>560.0</ele><time>2026-04-11T15:37:07Z</time></trkpt><trkpt lat="44.346198425160594" lon="10.883344914935316"><ele>560.8333333333333</ele><time>2026-04-11T15:37:08Z</time></trkpt><trkpt lat="44.34613684932705" lon="10.883309140072058"><ele>561.6666666666666</ele><time>2026-04-11T15:37:09Z</time></trkpt><trkpt lat="44.34602922795618" lon="10.883212998700058"><ele>562.5</ele><time>2026-04-11T15:37:11Z</time></trkpt><trkpt lat="44.34596940335424" lon="10.883146081142915"><ele>563.3333333333334</ele><time>2026-04-11T15:37:12Z</time></trkpt><trkpt lat="44.34588649065652" lon="10.883058507228291"><ele>564.1666666666667</ele><time>2026-04-11T15:37:13Z</time></trkpt><trkpt lat="44.34583423221491" lon="10.88300658569415"><ele>565.0</ele><time>2026-04-11T15:37:14Z</time></trkpt><trkpt lat="44.345780891324736" lon="10.88293729246639"><ele>565.0</ele><time>2026-04-11T15:37:15Z</time></trkpt><trkpt lat="44.345675371451065" lon="10.882870357336294"><ele>565.0</ele><time>2026-04-11T15:37:17Z</time></trkpt><trkpt lat="44.345591974498554" lon="10.882817059832108"><ele>565.0</ele><time>2026-04-11T15:37:17.999Z</time></trkpt><trkpt lat="44.34549568540161" lon="10.882774162854968"><ele>565.0</ele><time>2026-04-11T15:37:18.999Z</time></trkpt><trkpt lat="44.34543626636553" lon="10.88274490470735"><ele>565.0</ele><time>2026-04-11T15:37:19.999Z</time></trkpt><trkpt lat="44.34535703080017" lon="10.88273671018724"><ele>566.4</ele><time>2026-04-11T15:37:21.999Z</time></trkpt><trkpt lat="44.34529565617574" lon="10.882630612433369"><ele>567.8</ele><time>2026-04-11T15:37:24.999Z</time></trkpt><trkpt lat="44.345211582956985" lon="10.882534057554013"><ele>569.2</ele><time>2026-04-11T15:37:26.999Z</time></trkpt><trkpt lat="44.34512719134199" lon="10.882413836702835"><ele>570.6</ele><time>2026-04-11T15:37:28.999Z</time></trkpt><trkpt lat="44.34505589498499" lon="10.882285138178045"><ele>572.0</ele><time>2026-04-11T15:37:30.999Z</time></trkpt><trkpt lat="44.34497102111083" lon="10.882192793659158"><ele>573.4</ele><time>2026-04-11T15:37:32.999Z</time></trkpt><trkpt lat="44.34489175755616" lon="10.882100674973085"><ele>574.8000000000001</ele><time>2026-04-11T15:37:34.999Z</time></trkpt><trkpt lat="44.34482758237989" lon="10.882034660671485"><ele>576.2</ele><time>2026-04-11T15:37:36.999Z</time></trkpt><trkpt lat="44.34471827861629" lon="10.881996587386123"><ele>577.6</ele><time>2026-04-11T15:37:38.999Z</time></trkpt><trkpt lat="44.34458385530014" lon="10.881949163059062"><ele>579.0</ele><time>2026-04-11T15:37:40.999Z</time></trkpt><trkpt lat="44.344506208021045" lon="10.881907864565436"><ele>579.0</ele><time>2026-04-11T15:37:41.999Z</time></trkpt><trkpt lat="44.34444631681139" lon="10.881853445909956"><ele>579.0</ele><time>2026-04-11T15:37:42.999Z</time></trkpt><trkpt lat="44.34427923306688" lon="10.88181685418745"><ele>579.0</ele><time>2026-04-11T15:37:44.999Z</time></trkpt><trkpt lat="44.34416947725267" lon="10.881803882240565"><ele>579.0</ele><time>2026-04-11T15:37:45.999Z</time></trkpt><trkpt lat="44.344028425476075" lon="10.881778241945247"><ele>577.5</ele><time>2026-04-11T15:37:46.999Z</time></trkpt><trkpt lat="44.343934611656465" lon="10.88174369574208"><ele>576.0</ele><time>2026-04-11T15:37:47.999Z</time></trkpt><trkpt lat="44.343862909371026" lon="10.88171621580528"><ele>574.5</ele><time>2026-04-11T15:37:49.999Z</time></trkpt><trkpt lat="44.34379302238465" lon="10.881623991468564"><ele>573.0</ele><time>2026-04-11T15:37:50.999Z</time></trkpt><trkpt lat="44.34376271538327" lon="10.881523101835985"><ele>571.5</ele><time>2026-04-11T15:37:51.999Z</time></trkpt><trkpt lat="44.34375187187931" lon="10.881427103317396"><ele>570.0</ele><time>2026-04-11T15:37:52.999Z</time></trkpt><trkpt lat="44.34377150852863" lon="10.881272244078442"><ele>575.0</ele><time>2026-04-11T15:37:53.999Z</time></trkpt><trkpt lat="44.343797093254345" lon="10.88106391116205"><ele>580.0</ele><time>2026-04-11T15:37:54.999Z</time></trkpt><trkpt lat="44.34380569100949" lon="10.88087716565835"><ele>585.0</ele><time>2026-04-11T15:37:55.999Z</time></trkpt><trkpt lat="44.34374284041172" lon="10.880956050329639"><ele>590.0</ele><time>2026-04-11T15:37:56.999Z</time></trkpt><trkpt lat="44.34363013562384" lon="10.880847674002817"><ele>590.0</ele><time>2026-04-11T15:37:58.999Z</time></trkpt><trkpt lat="44.34354237433032" lon="10.880799650583997"><ele>590.0</ele><time>2026-04-11T15:37:59.999Z</time></trkpt><trkpt lat="44.343442614487365" lon="10.880749854186341"><ele>590.0</ele><time>2026-04-11T15:38:00.999Z</time></trkpt><trkpt lat="44.34332154973097" lon="10.880684889376147"><ele>590.0</ele><time>2026-04-11T15:38:01.999Z</time></trkpt><trkpt lat="44.343233910936625" lon="10.880618750218773"><ele>590.0</ele><time>2026-04-11T15:38:02.999Z</time></trkpt><trkpt lat="44.34316614836597" lon="10.880552422399196"><ele>590.0</ele><time>2026-04-11T15:38:03.999Z</time></trkpt><trkpt lat="44.34310348358943" lon="10.88047775968914"><ele>590.0</ele><time>2026-04-11T15:38:04.999Z</time></trkpt><trkpt lat="44.34302332825941" lon="10.88038734716234"><ele>590.0</ele><time>2026-04-11T15:38:06Z</time></trkpt><trkpt lat="44.34291635401911" lon="10.880263431559118"><ele>590.0</ele><time>2026-04-11T15:38:07Z</time></trkpt><trkpt lat="44.34284857945978" lon="10.88018386971095"><ele>590.0</ele><time>2026-04-11T15:38:08Z</time></trkpt><trkpt lat="44.34279490314144" lon="10.88010453355491"><ele>594.5</ele><time>2026-04-11T15:38:09Z</time></trkpt><trkpt lat="44.3427516477061" lon="10.880029977232851"><ele>599.0</ele><time>2026-04-11T15:38:10Z</time></trkpt><trkpt lat="44.34270857692065" lon="10.879949875547391"><ele>603.5</ele><time>2026-04-11T15:38:11Z</time></trkpt><trkpt lat="44.34266014746524" lon="10.879886830728614"><ele>608.0</ele><time>2026-04-11T15:38:12Z</time></trkpt><trkpt lat="44.34256365791962" lon="10.879806951729918"><ele>612.5</ele><time>2026-04-11T15:38:13Z</time></trkpt><trkpt lat="44.342495806498555" lon="10.879733747013823"><ele>617.0</ele><time>2026-04-11T15:38:14Z</time></trkpt><trkpt lat="44.34247090397892" lon="10.879611910507464"><ele>617.0</ele><time>2026-04-11T15:38:16Z</time></trkpt><trkpt lat="44.34254562604571" lon="10.879521345395359"><ele>617.0</ele><time>2026-04-11T15:38:18Z</time></trkpt><trkpt lat="44.34267585867675" lon="10.87948741939791"><ele>617.0</ele><time>2026-04-11T15:38:20Z</time></trkpt><trkpt lat="44.3427674378303" lon="10.879459421011319"><ele>617.0</ele><time>2026-04-11T15:38:21Z</time></trkpt><trkpt lat="44.342836849766925" lon="10.879445541377015"><ele>617.0</ele><time>2026-04-11T15:38:22Z</time></trkpt><trkpt lat="44.342906722284106" lon="10.879414086080862"><ele>617.75</ele><time>2026-04-11T15:38:23Z</time></trkpt><trkpt lat="44.34300975779135" lon="10.87926046734339"><ele>618.5</ele><time>2026-04-11T15:38:25Z</time></trkpt><trkpt lat="44.343091722874355" lon="10.879180346012356"><ele>619.25</ele><time>2026-04-11T15:38:26Z</time></trkpt><trkpt lat="44.343220816464964" lon="10.8791761350685"><ele>620.0</ele><time>2026-04-11T15:38:28Z</time></trkpt><trkpt lat="44.34335160299648" lon="10.879160745601364"><ele>620.0</ele><time>2026-04-11T15:38:30Z</time></trkpt><trkpt lat="44.34346166106157" lon="10.879154635255555"><ele>620.0</ele><time>2026-04-11T15:38:31Z</time></trkpt><trkpt lat="44.34353890613754" lon="10.879145251564694"><ele>620.0</ele><time>2026-04-11T15:38:32Z</time></trkpt><trkpt lat="44.34367851780548" lon="10.879119850618395"><ele>620.0</ele><time>2026-04-11T15:38:34Z</time></trkpt><trkpt lat="44.3437647399917" lon="10.87908380699435"><ele>620.0</ele><time>2026-04-11T15:38:35Z</time></trkpt><trkpt lat="44.343834181928656" lon="10.87904311645914"><ele>620.0</ele><time>2026-04-11T15:38:36Z</time></trkpt><trkpt lat="44.343790701367226" lon="10.878904149962315"><ele>620.0</ele><time>2026-04-11T15:38:39Z</time></trkpt><trkpt lat="44.34366404471149" lon="10.878782820392454"><ele>620.0</ele><time>2026-04-11T15:38:41Z</time></trkpt><trkpt lat="44.34358858578305" lon="10.87870976887109"><ele>620.0</ele><time>2026-04-11T15:38:42Z</time></trkpt><trkpt lat="44.34352697414275" lon="10.87864088644724"><ele>620.0</ele><time>2026-04-11T15:38:43Z</time></trkpt><trkpt lat="44.34346393452927" lon="10.878603447543574"><ele>620.0</ele><time>2026-04-11T15:38:44Z</time></trkpt><trkpt lat="44.34339778709781" lon="10.87856352934227"><ele>620.0</ele><time>2026-04-11T15:38:45Z</time></trkpt><trkpt lat="44.34330049076979" lon="10.878472858731085"><ele>620.0</ele><time>2026-04-11T15:38:46Z</time></trkpt><trkpt lat="44.34322498357127" lon="10.878419778961344"><ele>620.0</ele><time>2026-04-11T15:38:47Z</time></trkpt><trkpt lat="44.34315042329552" lon="10.878374104148376"><ele>620.0</ele><time>2026-04-11T15:38:48Z</time></trkpt><trkpt lat="44.343092716426106" lon="10.878301094680062"><ele>620.0</ele><time>2026-04-11T15:38:49Z</time></trkpt><trkpt lat="44.34302588393248" lon="10.878184061464426"><ele>620.75</ele><time>2026-04-11T15:38:51Z</time></trkpt><trkpt lat="44.34309274718536" lon="10.87799017906077"><ele>621.5</ele><time>2026-04-11T15:38:53Z</time></trkpt><trkpt lat="44.34309674808664" lon="10.877813839938549"><ele>622.25</ele><time>2026-04-11T15:38:54Z</time></trkpt><trkpt lat="44.343110196538035" lon="10.877597332584"><ele>623.0</ele><time>2026-04-11T15:38:55Z</time></trkpt><trkpt lat="44.343127977388704" lon="10.877365811060754"><ele>623.0</ele><time>2026-04-11T15:38:56Z</time></trkpt><trkpt lat="44.34314217277851" lon="10.877192103129202"><ele>623.0</ele><time>2026-04-11T15:38:57Z</time></trkpt><trkpt lat="44.343158504797096" lon="10.877023372966466"><ele>623.0</ele><time>2026-04-11T15:38:58Z</time></trkpt><trkpt lat="44.34317520936999" lon="10.876857779810479"><ele>623.0</ele><time>2026-04-11T15:38:59Z</time></trkpt><trkpt lat="44.34318588670028" lon="10.876741018364816"><ele>623.3333333333333</ele><time>2026-04-11T15:39:00Z</time></trkpt><trkpt lat="44.34319451103071" lon="10.876613254786982"><ele>623.6666666666666</ele><time>2026-04-11T15:39:01Z</time></trkpt><trkpt lat="44.34318480155596" lon="10.876488284456821"><ele>624.0</ele><time>2026-04-11T15:39:02Z</time></trkpt><trkpt lat="44.34319847412599" lon="10.87640009925638"><ele>624.3333333333334</ele><time>2026-04-11T15:39:03Z</time></trkpt><trkpt lat="44.34317872025668" lon="10.876315707829606"><ele>624.6666666666667</ele><time>2026-04-11T15:39:04Z</time></trkpt><trkpt lat="44.34316721585367" lon="10.876213230897273"><ele>625.0</ele><time>2026-04-11T15:39:05Z</time></trkpt><trkpt lat="44.34312911292968" lon="10.87610289753183"><ele>625.0</ele><time>2026-04-11T15:39:07Z</time></trkpt><trkpt lat="44.343063761074" lon="10.876039940118366"><ele>625.0</ele><time>2026-04-11T15:39:13Z</time></trkpt><trkpt lat="44.343002366421025" lon="10.876012401155803"><ele>625.0</ele><time>2026-04-11T15:39:14Z</time></trkpt><trkpt lat="44.34289473780794" lon="10.87600380658185"><ele>625.0</ele><time>2026-04-11T15:39:15Z</time></trkpt><trkpt lat="44.342740035583766" lon="10.87598290275914"><ele>625.0</ele><time>2026-04-11T15:39:16Z</time></trkpt><trkpt lat="44.34258766268402" lon="10.875970248190402"><ele>628.0</ele><time>2026-04-11T15:39:17Z</time></trkpt><trkpt lat="44.34249381102778" lon="10.87593090928305"><ele>631.0</ele><time>2026-04-11T15:39:18Z</time></trkpt><trkpt lat="44.34242687212291" lon="10.875845963829944"><ele>634.0</ele><time>2026-04-11T15:39:19Z</time></trkpt><trkpt lat="44.34236627456674" lon="10.875735062488742"><ele>637.0</ele><time>2026-04-11T15:39:20Z</time></trkpt><trkpt lat="44.342312632821894" lon="10.87561416942086"><ele>640.0</ele><time>2026-04-11T15:39:20.999Z</time></trkpt><trkpt lat="44.342241601991496" lon="10.875510443817076"><ele>642.75</ele><time>2026-04-11T15:39:21.999Z</time></trkpt><trkpt lat="44.34216910993127" lon="10.875481486072783"><ele>645.5</ele><time>2026-04-11T15:39:22.999Z</time></trkpt><trkpt lat="44.34209893594025" lon="10.875416752990045"><ele>648.25</ele><time>2026-04-11T15:39:23.999Z</time></trkpt><trkpt lat="44.34203064384445" lon="10.87535697567407"><ele>651.0</ele><time>2026-04-11T15:39:24.999Z</time></trkpt><trkpt lat="44.34186641453126" lon="10.875162099324017"><ele>651.0</ele><time>2026-04-11T15:39:25.999Z</time></trkpt><trkpt lat="44.34177275877231" lon="10.875042648677182"><ele>651.0</ele><time>2026-04-11T15:39:26.999Z</time></trkpt><trkpt lat="44.341708271605256" lon="10.874949371851791"><ele>651.0</ele><time>2026-04-11T15:39:27.999Z</time></trkpt><trkpt lat="44.341650899429304" lon="10.874816359010318"><ele>651.0</ele><time>2026-04-11T15:39:28.999Z</time></trkpt><trkpt lat="44.34162437161751" lon="10.874698579420855"><ele>651.0</ele><time>2026-04-11T15:39:29.999Z</time></trkpt><trkpt lat="44.34151032451623" lon="10.87473697456617"><ele>651.0</ele><time>2026-04-11T15:39:34.999Z</time></trkpt><trkpt lat="44.341466806889095" lon="10.874869921492499"><ele>651.0</ele><time>2026-04-11T15:39:36.999Z</time></trkpt><trkpt lat="44.341431336524174" lon="10.874962927676211"><ele>651.0</ele><time>2026-04-11T15:39:37.999Z</time></trkpt><trkpt lat="44.341395000270325" lon="10.87507329227385"><ele>651.0</ele><time>2026-04-11T15:39:38.999Z</time></trkpt><trkpt lat="44.34133054199172" lon="10.875197936904776"><ele>651.0</ele><time>2026-04-11T15:39:39.999Z</time></trkpt><trkpt lat="44.34129324048358" lon="10.87532814383554"><ele>653.5999999999999</ele><time>2026-04-11T15:39:41.999Z</time></trkpt><trkpt lat="44.341223650546546" lon="10.875495288117888"><ele>656.2</ele><time>2026-04-11T15:39:43.999Z</time></trkpt><trkpt lat="44.341175466905234" lon="10.875608884655366"><ele>658.8</ele><time>2026-04-11T15:39:44.999Z</time></trkpt><trkpt lat="44.34112703667343" lon="10.875709658311687"><ele>661.4000000000001</ele><time>2026-04-11T15:39:45.999Z</time></trkpt><trkpt lat="44.34109501170117" lon="10.875871895573521"><ele>664.0</ele><time>2026-04-11T15:39:47.999Z</time></trkpt><trkpt lat="44.34105727524005" lon="10.875965277785513"><ele>664.6666666666667</ele><time>2026-04-11T15:39:48.999Z</time></trkpt><trkpt lat="44.34103981135491" lon="10.876049929138617"><ele>665.3333333333334</ele><time>2026-04-11T15:39:49.999Z</time></trkpt><trkpt lat="44.34103358375968" lon="10.876147439835139"><ele>666.0</ele><time>2026-04-11T15:39:50.999Z</time></trkpt><trkpt lat="44.341007274760514" lon="10.87624403132219"><ele>666.6666666666666</ele><time>2026-04-11T15:39:51.999Z</time></trkpt><trkpt lat="44.3409723767415" lon="10.876367521851854"><ele>667.3333333333333</ele><time>2026-04-11T15:39:52.999Z</time></trkpt><trkpt lat="44.34092140916586" lon="10.876498073945443"><ele>668.0</ele><time>2026-04-11T15:39:53.999Z</time></trkpt><trkpt lat="44.34083752387163" lon="10.87661891177966"><ele>668.0</ele><time>2026-04-11T15:39:54.999Z</time></trkpt><trkpt lat="44.34077092042227" lon="10.876728367564667"><ele>668.0</ele><time>2026-04-11T15:39:55.999Z</time></trkpt><trkpt lat="44.34067826815853" lon="10.876899140574235"><ele>668.0</ele><time>2026-04-11T15:39:57.999Z</time></trkpt><trkpt lat="44.3406019723776" lon="10.877020073574531"><ele>668.0</ele><time>2026-04-11T15:39:58.999Z</time></trkpt><trkpt lat="44.340519636949686" lon="10.877143388173776"><ele>669.8</ele><time>2026-04-11T15:39:59.999Z</time></trkpt><trkpt lat="44.34045294583827" lon="10.877253842669658"><ele>671.5999999999999</ele><time>2026-04-11T15:40:00.999Z</time></trkpt><trkpt lat="44.34037928040574" lon="10.877327761344482"><ele>673.4000000000001</ele><time>2026-04-11T15:40:01.999Z</time></trkpt><trkpt lat="44.34024457759352" lon="10.877363134062241"><ele>675.2</ele><time>2026-04-11T15:40:03.999Z</time></trkpt><trkpt lat="44.34017423000239" lon="10.877390860967399"><ele>677.0</ele><time>2026-04-11T15:40:04.999Z</time></trkpt><trkpt lat="44.34011389643857" lon="10.877434352551937"><ele>677.0</ele><time>2026-04-11T15:40:05.999Z</time></trkpt><trkpt lat="44.34000322736815" lon="10.877468353314017"><ele>677.0</ele><time>2026-04-11T15:40:06.999Z</time></trkpt><trkpt lat="44.33987485651127" lon="10.877472114595388"><ele>677.0</ele><time>2026-04-11T15:40:07.999Z</time></trkpt><trkpt lat="44.33976657052379" lon="10.877463126804141"><ele>677.0</ele><time>2026-04-11T15:40:08.999Z</time></trkpt><trkpt lat="44.33966750953536" lon="10.877430824140173"><ele>679.5</ele><time>2026-04-11T15:40:09.999Z</time></trkpt><trkpt lat="44.339531317773954" lon="10.877396823485402"><ele>682.0</ele><time>2026-04-11T15:40:11Z</time></trkpt><trkpt lat="44.33938805089743" lon="10.87733098249193"><ele>684.5</ele><time>2026-04-11T15:40:12Z</time></trkpt><trkpt lat="44.339294592597064" lon="10.877283953076557"><ele>687.0</ele><time>2026-04-11T15:40:13Z</time></trkpt><trkpt lat="44.33923347453508" lon="10.87722918660247"><ele>687.0</ele><time>2026-04-11T15:40:14Z</time></trkpt><trkpt lat="44.33921183331975" lon="10.877120502649195"><ele>687.0</ele><time>2026-04-11T15:40:15Z</time></trkpt><trkpt lat="44.339215568869655" lon="10.877010531843382"><ele>687.0</ele><time>2026-04-11T15:40:16Z</time></trkpt><trkpt lat="44.339227816978465" lon="10.876866891708021"><ele>687.0</ele><time>2026-04-11T15:40:17Z</time></trkpt><trkpt lat="44.33922981912697" lon="10.876695479532072"><ele>687.0</ele><time>2026-04-11T15:40:18Z</time></trkpt><trkpt lat="44.33921488187482" lon="10.87651513490135"><ele>687.3333333333334</ele><time>2026-04-11T15:40:19Z</time></trkpt><trkpt lat="44.33918167053786" lon="10.87632589765391"><ele>687.6666666666667</ele><time>2026-04-11T15:40:20Z</time></trkpt><trkpt lat="44.339147943665886" lon="10.876127366874108"><ele>688.0</ele><time>2026-04-11T15:40:21Z</time></trkpt><trkpt lat="44.339106471051615" lon="10.875875939166535"><ele>689.0</ele><time>2026-04-11T15:40:22Z</time></trkpt><trkpt lat="44.339060647991374" lon="10.875618776625508"><ele>690.0</ele><time>2026-04-11T15:40:23Z</time></trkpt><trkpt lat="44.339005444350754" lon="10.875397639431524"><ele>691.0</ele><time>2026-04-11T15:40:24Z</time></trkpt><trkpt lat="44.338992378779366" lon="10.875194166446484"><ele>691.75</ele><time>2026-04-11T15:40:25Z</time></trkpt><trkpt lat="44.339020922449" lon="10.875029804212145"><ele>692.5</ele><time>2026-04-11T15:40:26Z</time></trkpt><trkpt lat="44.339002234696906" lon="10.874886554021575"><ele>693.25</ele><time>2026-04-11T15:40:27Z</time></trkpt><trkpt lat="44.33896494438967" lon="10.87475037017368"><ele>694.0</ele><time>2026-04-11T15:40:28Z</time></trkpt><trkpt lat="44.33888593623082" lon="10.874620404851777"><ele>698.8000000000001</ele><time>2026-04-11T15:40:29Z</time></trkpt><trkpt lat="44.3388267618396" lon="10.874481986512158"><ele>703.6</ele><time>2026-04-11T15:40:30Z</time></trkpt><trkpt lat="44.338762715196175" lon="10.874380847255164"><ele>708.4</ele><time>2026-04-11T15:40:31Z</time></trkpt><trkpt lat="44.33874747444912" lon="10.87425165715853"><ele>713.2</ele><time>2026-04-11T15:40:32Z</time></trkpt><trkpt lat="44.3387820095225" lon="10.874112285515501"><ele>718.0</ele><time>2026-04-11T15:40:33Z</time></trkpt><trkpt lat="44.338844655236386" lon="10.874020340068794"><ele>715.2</ele><time>2026-04-11T15:40:34Z</time></trkpt><trkpt lat="44.33892899743642" lon="10.873953274452248"><ele>712.4</ele><time>2026-04-11T15:40:35Z</time></trkpt><trkpt lat="44.3390230095411" lon="10.873856528584973"><ele>709.6</ele><time>2026-04-11T15:40:36Z</time></trkpt><trkpt lat="44.339105414083285" lon="10.873803733486527"><ele>706.8000000000001</ele><time>2026-04-11T15:40:37Z</time></trkpt><trkpt lat="44.33921082150154" lon="10.873709616290046"><ele>704.0</ele><time>2026-04-11T15:40:38Z</time></trkpt><trkpt lat="44.339256552790076" lon="10.873630479060687"><ele>704.0</ele><time>2026-04-11T15:40:39Z</time></trkpt><trkpt lat="44.33927499336615" lon="10.873544652733734"><ele>704.0</ele><time>2026-04-11T15:40:40Z</time></trkpt><trkpt lat="44.339263062597716" lon="10.873433603024433"><ele>704.0</ele><time>2026-04-11T15:40:41Z</time></trkpt><trkpt lat="44.33921871793832" lon="10.873309236548758"><ele>704.0</ele><time>2026-04-11T15:40:42Z</time></trkpt><trkpt lat="44.33916531914247" lon="10.873146682559696"><ele>704.0</ele><time>2026-04-11T15:40:43Z</time></trkpt><trkpt lat="44.33913318992824" lon="10.872994890369172"><ele>706.4000000000001</ele><time>2026-04-11T15:40:44Z</time></trkpt><trkpt lat="44.339080922403575" lon="10.87290149673159"><ele>708.8</ele><time>2026-04-11T15:40:45Z</time></trkpt><trkpt lat="44.3389963258835" lon="10.872855914592368"><ele>711.2</ele><time>2026-04-11T15:40:46Z</time></trkpt><trkpt lat="44.338902495870805" lon="10.872837501022854"><ele>713.5999999999999</ele><time>2026-04-11T15:40:47Z</time></trkpt><trkpt lat="44.33878209344102" lon="10.872848020251913"><ele>716.0</ele><time>2026-04-11T15:40:48Z</time></trkpt><trkpt lat="44.338628997226735" lon="10.872867918062575"><ele>718.75</ele><time>2026-04-11T15:40:49Z</time></trkpt><trkpt lat="44.33847461076267" lon="10.872871871093507"><ele>721.5</ele><time>2026-04-11T15:40:50Z</time></trkpt><trkpt lat="44.338353536343554" lon="10.872817866409465"><ele>724.25</ele><time>2026-04-11T15:40:51Z</time></trkpt><trkpt lat="44.33825630459368" lon="10.872757416723468"><ele>727.0</ele><time>2026-04-11T15:40:52Z</time></trkpt><trkpt lat="44.33820754991803" lon="10.872656403776405"><ele>726.4000000000001</ele><time>2026-04-11T15:40:53Z</time></trkpt><trkpt lat="44.33819022052398" lon="10.872550838482859"><ele>725.8000000000001</ele><time>2026-04-11T15:40:54Z</time></trkpt><trkpt lat="44.33823254350045" lon="10.872453264369335"><ele>725.2</ele><time>2026-04-11T15:40:55Z</time></trkpt><trkpt lat="44.33823559684498" lon="10.872317758906503"><ele>724.6</ele><time>2026-04-11T15:40:56Z</time></trkpt><trkpt lat="44.33822901884683" lon="10.872215474766817"><ele>724.0</ele><time>2026-04-11T15:40:57Z</time></trkpt><trkpt lat="44.338193421245585" lon="10.872035629870453"><ele>724.0</ele><time>2026-04-11T15:40:59Z</time></trkpt><trkpt lat="44.3382237490571" lon="10.87187457056085"><ele>724.0</ele><time>2026-04-11T15:41:00Z</time></trkpt><trkpt lat="44.33826523922412" lon="10.87167565351066"><ele>724.0</ele><time>2026-04-11T15:41:01Z</time></trkpt><trkpt lat="44.33831230121081" lon="10.87146676771336"><ele>724.0</ele><time>2026-04-11T15:41:02Z</time></trkpt><trkpt lat="44.338357750895014" lon="10.87122106094745"><ele>723.3333333333334</ele><time>2026-04-11T15:41:03Z</time></trkpt><trkpt lat="44.3384222166326" lon="10.870975586690928"><ele>722.6666666666666</ele><time>2026-04-11T15:41:04Z</time></trkpt><trkpt lat="44.33849108765907" lon="10.870712771690725"><ele>722.0</ele><time>2026-04-11T15:41:05Z</time></trkpt><trkpt lat="44.338566406189514" lon="10.870427123328858"><ele>723.3333333333333</ele><time>2026-04-11T15:41:06Z</time></trkpt><trkpt lat="44.33863568484111" lon="10.870146915853564"><ele>724.6666666666666</ele><time>2026-04-11T15:41:07Z</time></trkpt><trkpt lat="44.33871663838072" lon="10.8699292587253"><ele>726.0</ele><time>2026-04-11T15:41:08Z</time></trkpt><trkpt lat="44.338777403722894" lon="10.869714910705031"><ele>726.0</ele><time>2026-04-11T15:41:09Z</time></trkpt><trkpt lat="44.33887986246961" lon="10.869530669971711"><ele>726.0</ele><time>2026-04-11T15:41:10Z</time></trkpt><trkpt lat="44.33898688687077" lon="10.869343830791392"><ele>726.0</ele><time>2026-04-11T15:41:11Z</time></trkpt><trkpt lat="44.33909123947834" lon="10.86915164766414"><ele>729.75</ele><time>2026-04-11T15:41:12Z</time></trkpt><trkpt lat="44.33921006316996" lon="10.869008423840935"><ele>733.5</ele><time>2026-04-11T15:41:13Z</time></trkpt><trkpt lat="44.33929895173255" lon="10.868874263526545"><ele>737.25</ele><time>2026-04-11T15:41:14Z</time></trkpt><trkpt lat="44.3393639573352" lon="10.868734981516017"><ele>741.0</ele><time>2026-04-11T15:41:15Z</time></trkpt><trkpt lat="44.339392380873505" lon="10.86861973836802"><ele>741.0</ele><time>2026-04-11T15:41:16Z</time></trkpt><trkpt lat="44.33937887939603" lon="10.868481573848713"><ele>741.0</ele><time>2026-04-11T15:41:17Z</time></trkpt><trkpt lat="44.33930915556942" lon="10.868350894595624"><ele>741.0</ele><time>2026-04-11T15:41:18Z</time></trkpt><trkpt lat="44.339221903933186" lon="10.868236927374383"><ele>741.0</ele><time>2026-04-11T15:41:19Z</time></trkpt><trkpt lat="44.339106317289584" lon="10.868163494176725"><ele>742.25</ele><time>2026-04-11T15:41:20Z</time></trkpt><trkpt lat="44.338994244722336" lon="10.868098631545093"><ele>743.5</ele><time>2026-04-11T15:41:21Z</time></trkpt><trkpt lat="44.33888084060157" lon="10.868053929944562"><ele>744.75</ele><time>2026-04-11T15:41:22Z</time></trkpt><trkpt lat="44.33876126477744" lon="10.868033648521088"><ele>746.0</ele><time>2026-04-11T15:41:23Z</time></trkpt><trkpt lat="44.338634409895384" lon="10.868023489188776"><ele>748.25</ele><time>2026-04-11T15:41:24Z</time></trkpt><trkpt lat="44.33849950286829" lon="10.867981704493005"><ele>750.5</ele><time>2026-04-11T15:41:25Z</time></trkpt><trkpt lat="44.33838608000808" lon="10.867903778793325"><ele>752.75</ele><time>2026-04-11T15:41:26Z</time></trkpt><trkpt lat="44.33833138258678" lon="10.867754702524877"><ele>755.0</ele><time>2026-04-11T15:41:26.999Z</time></trkpt><trkpt lat="44.33825805161" lon="10.867632145585638"><ele>755.25</ele><time>2026-04-11T15:41:27.999Z</time></trkpt><trkpt lat="44.338194551696404" lon="10.867480277180894"><ele>755.5</ele><time>2026-04-11T15:41:28.999Z</time></trkpt><trkpt lat="44.3381659123727" lon="10.867338906732016"><ele>755.75</ele><time>2026-04-11T15:41:29.999Z</time></trkpt><trkpt lat="44.33816103755323" lon="10.86719228285074"><ele>756.0</ele><time>2026-04-11T15:41:30.999Z</time></trkpt><trkpt lat="44.33814704243147" lon="10.867030694851966"><ele>756.0</ele><time>2026-04-11T15:41:31.999Z</time></trkpt><trkpt lat="44.33816172938077" lon="10.866885459448469"><ele>756.0</ele><time>2026-04-11T15:41:32.999Z</time></trkpt><trkpt lat="44.338167760108114" lon="10.866797012184522"><ele>756.0</ele><time>2026-04-11T15:41:33.999Z</time></trkpt><trkpt lat="44.33818908844308" lon="10.86670433313847"><ele>756.0</ele><time>2026-04-11T15:41:36.999Z</time></trkpt><trkpt lat="44.33810268668514" lon="10.866493735901475"><ele>756.0</ele><time>2026-04-11T15:41:41.999Z</time></trkpt><trkpt lat="44.33807305006477" lon="10.866393550577087"><ele>755.6666666666666</ele><time>2026-04-11T15:41:42.999Z</time></trkpt><trkpt lat="44.33776992859996" lon="10.86640433437789"><ele>755.3333333333333</ele><time>2026-04-11T15:41:43.999Z</time></trkpt><trkpt lat="44.337689897380336" lon="10.866326354314058"><ele>755.0</ele><time>2026-04-11T15:41:44.999Z</time></trkpt><trkpt lat="44.33762338667342" lon="10.866262133404366"><ele>755.0</ele><time>2026-04-11T15:41:45.999Z</time></trkpt><trkpt lat="44.337560902837474" lon="10.866195414039748"><ele>755.0</ele><time>2026-04-11T15:41:46.999Z</time></trkpt><trkpt lat="44.33750456257639" lon="10.866132345503008"><ele>755.0</ele><time>2026-04-11T15:41:47.999Z</time></trkpt><trkpt lat="44.33746019502602" lon="10.866067997387349"><ele>755.0</ele><time>2026-04-11T15:41:48.999Z</time></trkpt><trkpt lat="44.33741697972902" lon="10.865944188666058"><ele>755.0</ele><time>2026-04-11T15:41:50.999Z</time></trkpt><trkpt lat="44.33739238774734" lon="10.865753970960059"><ele>755.6</ele><time>2026-04-11T15:41:52.999Z</time></trkpt><trkpt lat="44.337364656489605" lon="10.865643475536332"><ele>756.2</ele><time>2026-04-11T15:41:53.999Z</time></trkpt><trkpt lat="44.337291946124864" lon="10.865468282291978"><ele>756.8</ele><time>2026-04-11T15:41:55.999Z</time></trkpt><trkpt lat="44.337260156472134" lon="10.865384623563168"><ele>757.4</ele><time>2026-04-11T15:41:56.999Z</time></trkpt><trkpt lat="44.33722714574588" lon="10.865292428061084"><ele>758.0</ele><time>2026-04-11T15:41:57.999Z</time></trkpt><trkpt lat="44.33717850521892" lon="10.865124832231832"><ele>756.8</ele><time>2026-04-11T15:41:59.999Z</time></trkpt><trkpt lat="44.33712929463738" lon="10.865022943767345"><ele>755.5999999999999</ele><time>2026-04-11T15:42:00.999Z</time></trkpt><trkpt lat="44.337102780685775" lon="10.864902877298773"><ele>754.4000000000001</ele><time>2026-04-11T15:42:01.999Z</time></trkpt><trkpt lat="44.33709243800209" lon="10.864780952881226"><ele>753.2</ele><time>2026-04-11T15:42:02.999Z</time></trkpt><trkpt lat="44.337076132921425" lon="10.864656356590936"><ele>752.0</ele><time>2026-04-11T15:42:03.999Z</time></trkpt><trkpt lat="44.33704872654242" lon="10.864522583130015"><ele>752.0</ele><time>2026-04-11T15:42:04.999Z</time></trkpt><trkpt lat="44.33701619867426" lon="10.864417103520832"><ele>752.0</ele><time>2026-04-11T15:42:05.999Z</time></trkpt><trkpt lat="44.33697901172547" lon="10.864327144716293"><ele>752.0</ele><time>2026-04-11T15:42:06.999Z</time></trkpt><trkpt lat="44.33693526381541" lon="10.864220966958795"><ele>752.0</ele><time>2026-04-11T15:42:07.999Z</time></trkpt><trkpt lat="44.33687987917405" lon="10.864114716475463"><ele>752.0</ele><time>2026-04-11T15:42:08.999Z</time></trkpt><trkpt lat="44.336828799284" lon="10.864036578055984"><ele>752.0</ele><time>2026-04-11T15:42:09.999Z</time></trkpt><trkpt lat="44.33675656960242" lon="10.863936299286422"><ele>752.8333333333333</ele><time>2026-04-11T15:42:10.999Z</time></trkpt><trkpt lat="44.33671240081149" lon="10.863861490483968"><ele>753.6666666666666</ele><time>2026-04-11T15:42:11.999Z</time></trkpt><trkpt lat="44.336671199698955" lon="10.863779173535779"><ele>754.5</ele><time>2026-04-11T15:42:12.999Z</time></trkpt><trkpt lat="44.33664139281834" lon="10.863629355554805"><ele>755.3333333333334</ele><time>2026-04-11T15:42:14.999Z</time></trkpt><trkpt lat="44.33666267113196" lon="10.863519567909874"><ele>756.1666666666667</ele><time>2026-04-11T15:42:15.999Z</time></trkpt><trkpt lat="44.33664617120681" lon="10.863430201449495"><ele>757.0</ele><time>2026-04-11T15:42:17Z</time></trkpt><trkpt lat="44.33662291690961" lon="10.863309729898953"><ele>758.0</ele><time>2026-04-11T15:42:18Z</time></trkpt><trkpt lat="44.33659035814553" lon="10.863141055356724"><ele>759.0</ele><time>2026-04-11T15:42:19Z</time></trkpt><trkpt lat="44.33653764758988" lon="10.862973406145827"><ele>760.0</ele><time>2026-04-11T15:42:20Z</time></trkpt><trkpt lat="44.33650758505604" lon="10.862802843680683"><ele>761.0</ele><time>2026-04-11T15:42:21Z</time></trkpt><trkpt lat="44.33646669312808" lon="10.862612434098686"><ele>762.0</ele><time>2026-04-11T15:42:22Z</time></trkpt><trkpt lat="44.33644956899643" lon="10.862408170752529"><ele>763.0</ele><time>2026-04-11T15:42:23Z</time></trkpt><trkpt lat="44.33644204185081" lon="10.862177455420182"><ele>764.0</ele><time>2026-04-11T15:42:24Z</time></trkpt><trkpt lat="44.336438464966704" lon="10.861926512504455"><ele>764.6666666666666</ele><time>2026-04-11T15:42:25Z</time></trkpt><trkpt lat="44.336428609689115" lon="10.861672447898407"><ele>765.3333333333334</ele><time>2026-04-11T15:42:26Z</time></trkpt><trkpt lat="44.336392832640946" lon="10.86144754783097"><ele>766.0</ele><time>2026-04-11T15:42:27Z</time></trkpt><trkpt lat="44.33638871658632" lon="10.861251985539301"><ele>765.5999999999999</ele><time>2026-04-11T15:42:28Z</time></trkpt><trkpt lat="44.336369460146905" lon="10.861099207151009"><ele>765.2</ele><time>2026-04-11T15:42:29Z</time></trkpt><trkpt lat="44.336350077006905" lon="10.860973453714122"><ele>764.8</ele><time>2026-04-11T15:42:30Z</time></trkpt><trkpt lat="44.336312589427656" lon="10.860836309072099"><ele>764.4000000000001</ele><time>2026-04-11T15:42:31Z</time></trkpt><trkpt lat="44.33630780699056" lon="10.860727696810153"><ele>764.0</ele><time>2026-04-11T15:42:32Z</time></trkpt><trkpt lat="44.33628927001303" lon="10.860627134695575"><ele>765.25</ele><time>2026-04-11T15:42:33Z</time></trkpt><trkpt lat="44.33627289555323" lon="10.860505749941133"><ele>766.5</ele><time>2026-04-11T15:42:35Z</time></trkpt><trkpt lat="44.336266681713816" lon="10.860405146543181"><ele>767.75</ele><time>2026-04-11T15:42:37Z</time></trkpt><trkpt lat="44.33608988261549" lon="10.860379615238902"><ele>769.0</ele><time>2026-04-11T15:42:38Z</time></trkpt><trkpt lat="44.3359907391579" lon="10.860294298713674"><ele>769.0</ele><time>2026-04-11T15:42:39Z</time></trkpt><trkpt lat="44.33586040269233" lon="10.86022430952393"><ele>769.0</ele><time>2026-04-11T15:42:40Z</time></trkpt><trkpt lat="44.33572997338272" lon="10.860113722444087"><ele>769.0</ele><time>2026-04-11T15:42:41Z</time></trkpt><trkpt lat="44.33561740610176" lon="10.860027570781526"><ele>769.0</ele><time>2026-04-11T15:42:42Z</time></trkpt><trkpt lat="44.335524089594436" lon="10.859942551694552"><ele>768.75</ele><time>2026-04-11T15:42:43Z</time></trkpt><trkpt lat="44.335408375092484" lon="10.859928660540136"><ele>768.5</ele><time>2026-04-11T15:42:44Z</time></trkpt><trkpt lat="44.33531008995503" lon="10.859927225935055"><ele>768.25</ele><time>2026-04-11T15:42:45Z</time></trkpt><trkpt lat="44.335203213234266" lon="10.85996131653779"><ele>768.0</ele><time>2026-04-11T15:42:46Z</time></trkpt><trkpt lat="44.335079418340044" lon="10.859991381427403"><ele>768.0</ele><time>2026-04-11T15:42:47Z</time></trkpt><trkpt lat="44.3349358778192" lon="10.860015408055261"><ele>768.0</ele><time>2026-04-11T15:42:48Z</time></trkpt><trkpt lat="44.33481190432353" lon="10.860060940968731"><ele>768.0</ele><time>2026-04-11T15:42:49Z</time></trkpt><trkpt lat="44.33471232050786" lon="10.860074873631623"><ele>768.0</ele><time>2026-04-11T15:42:50Z</time></trkpt><trkpt lat="44.33460708704255" lon="10.860102257408087"><ele>767.2</ele><time>2026-04-11T15:42:51Z</time></trkpt><trkpt lat="44.334517590253576" lon="10.860117233665333"><ele>766.4</ele><time>2026-04-11T15:42:52Z</time></trkpt><trkpt lat="44.33441870819881" lon="10.860139300814401"><ele>765.6</ele><time>2026-04-11T15:42:53Z</time></trkpt><trkpt lat="44.33431171681928" lon="10.860156758954442"><ele>764.8000000000001</ele><time>2026-04-11T15:42:54Z</time></trkpt><trkpt lat="44.33421215888306" lon="10.860147287106507"><ele>764.0</ele><time>2026-04-11T15:42:55Z</time></trkpt><trkpt lat="44.334112240693706" lon="10.860094556256298"><ele>764.0</ele><time>2026-04-11T15:42:56Z</time></trkpt><trkpt lat="44.33401709248688" lon="10.85999151790835"><ele>764.0</ele><time>2026-04-11T15:42:57Z</time></trkpt><trkpt lat="44.33392037276283" lon="10.859897192220231"><ele>764.0</ele><time>2026-04-11T15:42:58Z</time></trkpt><trkpt lat="44.333818365165115" lon="10.859781708389086"><ele>764.0</ele><time>2026-04-11T15:42:59Z</time></trkpt><trkpt lat="44.333695090538356" lon="10.859660018766581"><ele>764.25</ele><time>2026-04-11T15:43:00Z</time></trkpt><trkpt lat="44.33358734847808" lon="10.859507338589415"><ele>764.5</ele><time>2026-04-11T15:43:01Z</time></trkpt><trkpt lat="44.33346324686688" lon="10.859381090311311"><ele>764.75</ele><time>2026-04-11T15:43:02Z</time></trkpt><trkpt lat="44.33335035150688" lon="10.859259680700138"><ele>765.0</ele><time>2026-04-11T15:43:03Z</time></trkpt><trkpt lat="44.33325732920387" lon="10.859143357949781"><ele>766.25</ele><time>2026-04-11T15:43:04Z</time></trkpt><trkpt lat="44.333165869389376" lon="10.859024682896075"><ele>767.5</ele><time>2026-04-11T15:43:05Z</time></trkpt><trkpt lat="44.33307355331123" lon="10.858918211683912"><ele>768.75</ele><time>2026-04-11T15:43:06Z</time></trkpt><trkpt lat="44.332966615128704" lon="10.858795064591144"><ele>770.0</ele><time>2026-04-11T15:43:07Z</time></trkpt><trkpt lat="44.33286514177046" lon="10.858680903985919"><ele>771.5</ele><time>2026-04-11T15:43:08Z</time></trkpt><trkpt lat="44.33275130819258" lon="10.858551877804025"><ele>773.0</ele><time>2026-04-11T15:43:09Z</time></trkpt><trkpt lat="44.332626956836066" lon="10.858436454857335"><ele>774.5</ele><time>2026-04-11T15:43:10Z</time></trkpt><trkpt lat="44.332513885216315" lon="10.858302543428382"><ele>776.0</ele><time>2026-04-11T15:43:11Z</time></trkpt><trkpt lat="44.33243801501225" lon="10.858162942676826"><ele>776.0</ele><time>2026-04-11T15:43:12Z</time></trkpt><trkpt lat="44.33234412211719" lon="10.857990612477225"><ele>776.0</ele><time>2026-04-11T15:43:13Z</time></trkpt><trkpt lat="44.33224809510946" lon="10.85782535408033"><ele>776.0</ele><time>2026-04-11T15:43:14Z</time></trkpt><trkpt lat="44.33215297109891" lon="10.857680111490708"><ele>776.0</ele><time>2026-04-11T15:43:15Z</time></trkpt><trkpt lat="44.33207303688294" lon="10.857553199166864"><ele>778.0</ele><time>2026-04-11T15:43:16Z</time></trkpt><trkpt lat="44.33200768111745" lon="10.857433755008156"><ele>780.0</ele><time>2026-04-11T15:43:17Z</time></trkpt><trkpt lat="44.33196489729445" lon="10.85731061330526"><ele>782.0</ele><time>2026-04-11T15:43:18Z</time></trkpt><trkpt lat="44.33195429465716" lon="10.85716984797339"><ele>784.0</ele><time>2026-04-11T15:43:19Z</time></trkpt><trkpt lat="44.33195008464493" lon="10.856990336631016"><ele>786.0</ele><time>2026-04-11T15:43:20Z</time></trkpt><trkpt lat="44.33194025371997" lon="10.856836102103646"><ele>784.4</ele><time>2026-04-11T15:43:21Z</time></trkpt><trkpt lat="44.33191422656526" lon="10.856710034367467"><ele>782.8</ele><time>2026-04-11T15:43:22Z</time></trkpt><trkpt lat="44.33188278756524" lon="10.856604887405576"><ele>781.1999999999999</ele><time>2026-04-11T15:43:23Z</time></trkpt><trkpt lat="44.33184364327581" lon="10.856493863201546"><ele>779.5999999999999</ele><time>2026-04-11T15:43:24Z</time></trkpt><trkpt lat="44.33172110308768" lon="10.856424230104205"><ele>778.0</ele><time>2026-04-11T15:43:25Z</time></trkpt><trkpt lat="44.33163003313993" lon="10.856356952978167"><ele>778.0</ele><time>2026-04-11T15:43:26Z</time></trkpt><trkpt lat="44.33153996580545" lon="10.856314945779989"><ele>778.0</ele><time>2026-04-11T15:43:27Z</time></trkpt><trkpt lat="44.33146477741688" lon="10.856289535749948"><ele>778.0</ele><time>2026-04-11T15:43:28Z</time></trkpt><trkpt lat="44.33137812966414" lon="10.856283464305577"><ele>778.0</ele><time>2026-04-11T15:43:29Z</time></trkpt><trkpt lat="44.33127843353823" lon="10.85630104613176"><ele>778.0</ele><time>2026-04-11T15:43:29.999Z</time></trkpt><trkpt lat="44.33117826152517" lon="10.856274388738907"><ele>776.0</ele><time>2026-04-11T15:43:30.999Z</time></trkpt><trkpt lat="44.331074160383864" lon="10.856251067738695"><ele>774.0</ele><time>2026-04-11T15:43:31.999Z</time></trkpt><trkpt lat="44.33093440708767" lon="10.856215711777157"><ele>772.0</ele><time>2026-04-11T15:43:32.999Z</time></trkpt><trkpt lat="44.33080632062819" lon="10.856194022113426"><ele>770.0</ele><time>2026-04-11T15:43:33.999Z</time></trkpt><trkpt lat="44.33066061191006" lon="10.856148834693837"><ele>767.0</ele><time>2026-04-11T15:43:34.999Z</time></trkpt><trkpt lat="44.330533527295316" lon="10.85609406015683"><ele>764.0</ele><time>2026-04-11T15:43:35.999Z</time></trkpt><trkpt lat="44.33040096332784" lon="10.856047657122662"><ele>761.0</ele><time>2026-04-11T15:43:36.999Z</time></trkpt><trkpt lat="44.33028826508694" lon="10.856037523983405"><ele>758.0</ele><time>2026-04-11T15:43:37.999Z</time></trkpt><trkpt lat="44.330188707219854" lon="10.856026827991494"><ele>758.0</ele><time>2026-04-11T15:43:38.999Z</time></trkpt><trkpt lat="44.33012161609908" lon="10.855986541506066"><ele>758.0</ele><time>2026-04-11T15:43:39.999Z</time></trkpt><trkpt lat="44.33004833479296" lon="10.855950833195786"><ele>758.0</ele><time>2026-04-11T15:43:40.999Z</time></trkpt><trkpt lat="44.329979213129015" lon="10.855911533966532"><ele>758.0</ele><time>2026-04-11T15:43:41.999Z</time></trkpt><trkpt lat="44.329902134754576" lon="10.85587086133902"><ele>758.0</ele><time>2026-04-11T15:43:42.999Z</time></trkpt><trkpt lat="44.329823026948404" lon="10.855837194424204"><ele>758.0</ele><time>2026-04-11T15:43:43.999Z</time></trkpt><trkpt lat="44.32974276162014" lon="10.855807153534025"><ele>758.8333333333333</ele><time>2026-04-11T15:43:44.999Z</time></trkpt><trkpt lat="44.32966080254621" lon="10.85580677271124"><ele>759.6666666666666</ele><time>2026-04-11T15:43:45.999Z</time></trkpt><trkpt lat="44.32959385868274" lon="10.855792490233373"><ele>760.5</ele><time>2026-04-11T15:43:46.999Z</time></trkpt><trkpt lat="44.3295081234339" lon="10.855762758822793"><ele>761.3333333333334</ele><time>2026-04-11T15:43:47.999Z</time></trkpt><trkpt lat="44.32942737566711" lon="10.85576486078345"><ele>762.1666666666667</ele><time>2026-04-11T15:43:48.999Z</time></trkpt><trkpt lat="44.3293240025942" lon="10.855782940255303"><ele>763.0</ele><time>2026-04-11T15:43:49.999Z</time></trkpt><trkpt lat="44.32923717595093" lon="10.8558277226246"><ele>763.0</ele><time>2026-04-11T15:43:50.999Z</time></trkpt><trkpt lat="44.3291415566519" lon="10.855806533765819"><ele>763.0</ele><time>2026-04-11T15:43:51.999Z</time></trkpt><trkpt lat="44.329060230685094" lon="10.855772952698354"><ele>763.0</ele><time>2026-04-11T15:43:52.999Z</time></trkpt><trkpt lat="44.32897953107275" lon="10.855720305715304"><ele>763.0</ele><time>2026-04-11T15:43:53.999Z</time></trkpt><trkpt lat="44.32890219600199" lon="10.855684700742106"><ele>763.0</ele><time>2026-04-11T15:43:54.999Z</time></trkpt><trkpt lat="44.32881362029158" lon="10.855579302568179"><ele>763.5999999999999</ele><time>2026-04-11T15:43:55.999Z</time></trkpt><trkpt lat="44.32874133435998" lon="10.855459800522624"><ele>764.1999999999999</ele><time>2026-04-11T15:43:56.999Z</time></trkpt><trkpt lat="44.328700566396755" lon="10.855371044919025"><ele>764.8</ele><time>2026-04-11T15:43:57.999Z</time></trkpt><trkpt lat="44.32864889258262" lon="10.855263034326795"><ele>765.4</ele><time>2026-04-11T15:43:58.999Z</time></trkpt><trkpt lat="44.32859207814006" lon="10.855143778194156"><ele>766.0</ele><time>2026-04-11T15:43:59.999Z</time></trkpt><trkpt lat="44.32854130869367" lon="10.855034456672536"><ele>766.0</ele><time>2026-04-11T15:44:00.999Z</time></trkpt><trkpt lat="44.328480600131364" lon="10.854940983552535"><ele>766.0</ele><time>2026-04-11T15:44:01.999Z</time></trkpt><trkpt lat="44.328428520713544" lon="10.854839557219613"><ele>766.0</ele><time>2026-04-11T15:44:02.999Z</time></trkpt><trkpt lat="44.328386888619605" lon="10.854733503799519"><ele>766.0</ele><time>2026-04-11T15:44:03.999Z</time></trkpt><trkpt lat="44.32833485823459" lon="10.854643547920475"><ele>766.0</ele><time>2026-04-11T15:44:04.999Z</time></trkpt><trkpt lat="44.32828505478474" lon="10.854547533624695"><ele>766.0</ele><time>2026-04-11T15:44:05.999Z</time></trkpt><trkpt lat="44.32825584273494" lon="10.854447902864377"><ele>766.0</ele><time>2026-04-11T15:44:06.999Z</time></trkpt><trkpt lat="44.32824361623984" lon="10.854343857933411"><ele>766.0</ele><time>2026-04-11T15:44:07.999Z</time></trkpt><trkpt lat="44.32822154809343" lon="10.854206758500105"><ele>766.0</ele><time>2026-04-11T15:44:08.999Z</time></trkpt><trkpt lat="44.32820033446042" lon="10.854083760123336"><ele>766.0</ele><time>2026-04-11T15:44:09.999Z</time></trkpt><trkpt lat="44.32818842892683" lon="10.853965903602008"><ele>766.0</ele><time>2026-04-11T15:44:10.999Z</time></trkpt><trkpt lat="44.32819271757321" lon="10.853856978760493"><ele>766.0</ele><time>2026-04-11T15:44:11.999Z</time></trkpt><trkpt lat="44.32821532802991" lon="10.853729961014693"><ele>766.0</ele><time>2026-04-11T15:44:12.999Z</time></trkpt><trkpt lat="44.32823446412992" lon="10.853636153959847"><ele>766.0</ele><time>2026-04-11T15:44:13.999Z</time></trkpt><trkpt lat="44.328260615725746" lon="10.85350153433172"><ele>766.0</ele><time>2026-04-11T15:44:14.999Z</time></trkpt><trkpt lat="44.328284395486286" lon="10.853382665593317"><ele>766.0</ele><time>2026-04-11T15:44:15.999Z</time></trkpt><trkpt lat="44.32830586478744" lon="10.853275346066235"><ele>766.0</ele><time>2026-04-11T15:44:16.999Z</time></trkpt><trkpt lat="44.32833074884021" lon="10.853152835947744"><ele>766.0</ele><time>2026-04-11T15:44:17.999Z</time></trkpt><trkpt lat="44.3283512009483" lon="10.853037128912183"><ele>765.6666666666667</ele><time>2026-04-11T15:44:18.999Z</time></trkpt><trkpt lat="44.32836905950943" lon="10.85293609253382"><ele>765.3333333333334</ele><time>2026-04-11T15:44:19.999Z</time></trkpt><trkpt lat="44.32838718513915" lon="10.85282099527276"><ele>765.0</ele><time>2026-04-11T15:44:20.999Z</time></trkpt><trkpt lat="44.328367461400816" lon="10.852657169241773"><ele>764.6666666666666</ele><time>2026-04-11T15:44:23Z</time></trkpt><trkpt lat="44.32835512366461" lon="10.852563637857461"><ele>764.3333333333333</ele><time>2026-04-11T15:44:24Z</time></trkpt><trkpt lat="44.3283018264832" lon="10.852473304437755"><ele>764.0</ele><time>2026-04-11T15:44:25Z</time></trkpt><trkpt lat="44.32821826839776" lon="10.85239703365658"><ele>763.4000000000001</ele><time>2026-04-11T15:44:26Z</time></trkpt><trkpt lat="44.328160733911524" lon="10.852325699596863"><ele>762.8</ele><time>2026-04-11T15:44:27Z</time></trkpt><trkpt lat="44.32809424646998" lon="10.852224869533478"><ele>762.2</ele><time>2026-04-11T15:44:28Z</time></trkpt><trkpt lat="44.32800382884264" lon="10.85212129723244"><ele>761.5999999999999</ele><time>2026-04-11T15:44:29Z</time></trkpt><trkpt lat="44.32791819713542" lon="10.852025502321885"><ele>761.0</ele><time>2026-04-11T15:44:31Z</time></trkpt><trkpt lat="44.327840807317756" lon="10.851933472187651"><ele>760.25</ele><time>2026-04-11T15:44:32Z</time></trkpt><trkpt lat="44.327757945529456" lon="10.851819228215216"><ele>759.5</ele><time>2026-04-11T15:44:33Z</time></trkpt><trkpt lat="44.327668951207535" lon="10.851693997430814"><ele>758.75</ele><time>2026-04-11T15:44:34Z</time></trkpt><trkpt lat="44.32759487852778" lon="10.851590884138863"><ele>758.0</ele><time>2026-04-11T15:44:35Z</time></trkpt><trkpt lat="44.32749465199382" lon="10.851454042703688"><ele>758.0</ele><time>2026-04-11T15:44:36Z</time></trkpt><trkpt lat="44.32740977910198" lon="10.851346729794537"><ele>758.0</ele><time>2026-04-11T15:44:37Z</time></trkpt><trkpt lat="44.32729379122488" lon="10.851207716154004"><ele>758.0</ele><time>2026-04-11T15:44:38Z</time></trkpt><trkpt lat="44.32715325076263" lon="10.851034546560316"><ele>758.75</ele><time>2026-04-11T15:44:39Z</time></trkpt><trkpt lat="44.32703812915771" lon="10.850878468057102"><ele>759.5</ele><time>2026-04-11T15:44:40Z</time></trkpt><trkpt lat="44.32694599431469" lon="10.85075021002976"><ele>760.25</ele><time>2026-04-11T15:44:41Z</time></trkpt><trkpt lat="44.32686889802769" lon="10.850636563024958"><ele>761.0</ele><time>2026-04-11T15:44:42Z</time></trkpt><trkpt lat="44.32680921272966" lon="10.850548458247435"><ele>761.0</ele><time>2026-04-11T15:44:43Z</time></trkpt><trkpt lat="44.32675954754217" lon="10.850481713724776"><ele>761.0</ele><time>2026-04-11T15:44:44Z</time></trkpt><trkpt lat="44.326642468189206" lon="10.850348568337056"><ele>761.0</ele><time>2026-04-11T15:44:46Z</time></trkpt><trkpt lat="44.32656661571327" lon="10.850276310121101"><ele>761.0</ele><time>2026-04-11T15:44:47Z</time></trkpt><trkpt lat="44.326504538677376" lon="10.85022583702427"><ele>761.0</ele><time>2026-04-11T15:44:48Z</time></trkpt><trkpt lat="44.32643432613211" lon="10.850181864525052"><ele>758.8333333333333</ele><time>2026-04-11T15:44:49Z</time></trkpt><trkpt lat="44.326348925076694" lon="10.850142896055825"><ele>756.6666666666666</ele><time>2026-04-11T15:44:50Z</time></trkpt><trkpt lat="44.32627402780471" lon="10.850144933865787"><ele>754.5</ele><time>2026-04-11T15:44:51Z</time></trkpt><trkpt lat="44.32619676033006" lon="10.85012495515655"><ele>752.3333333333334</ele><time>2026-04-11T15:44:52Z</time></trkpt><trkpt lat="44.32612529149293" lon="10.85012013111835"><ele>750.1666666666667</ele><time>2026-04-11T15:44:53Z</time></trkpt><trkpt lat="44.32605325834802" lon="10.850087974297924"><ele>748.0</ele><time>2026-04-11T15:44:54Z</time></trkpt><trkpt lat="44.32596814103961" lon="10.850086543059195"><ele>748.0</ele><time>2026-04-11T15:44:55Z</time></trkpt><trkpt lat="44.325900476792825" lon="10.850060579795908"><ele>748.0</ele><time>2026-04-11T15:44:56Z</time></trkpt><trkpt lat="44.32583639788566" lon="10.850004117610395"><ele>748.0</ele><time>2026-04-11T15:44:57Z</time></trkpt><trkpt lat="44.32575597149798" lon="10.849962803958693"><ele>748.0</ele><time>2026-04-11T15:44:58Z</time></trkpt><trkpt lat="44.325687707673225" lon="10.849957068056137"><ele>748.0</ele><time>2026-04-11T15:44:59Z</time></trkpt><trkpt lat="44.32555625460585" lon="10.849894841750745"><ele>748.0</ele><time>2026-04-11T15:45:01Z</time></trkpt><trkpt lat="44.325486811704025" lon="10.849853547743594"><ele>746.0</ele><time>2026-04-11T15:45:02Z</time></trkpt><trkpt lat="44.325384709875046" lon="10.849811822727847"><ele>744.0</ele><time>2026-04-11T15:45:04Z</time></trkpt><trkpt lat="44.32527866882417" lon="10.849763798442533"><ele>742.0</ele><time>2026-04-11T15:45:05Z</time></trkpt><trkpt lat="44.325198821641514" lon="10.849725685866039"><ele>740.0</ele><time>2026-04-11T15:45:06Z</time></trkpt><trkpt lat="44.32510253316214" lon="10.849703200345363"><ele>738.0</ele><time>2026-04-11T15:45:07Z</time></trkpt><trkpt lat="44.32504410090849" lon="10.84964904529489"><ele>738.0</ele><time>2026-04-11T15:45:08Z</time></trkpt><trkpt lat="44.32496336205537" lon="10.849632320279234"><ele>738.0</ele><time>2026-04-11T15:45:09Z</time></trkpt><trkpt lat="44.324892977351745" lon="10.849589110655696"><ele>738.0</ele><time>2026-04-11T15:45:10Z</time></trkpt><trkpt lat="44.32479017086787" lon="10.849486752692592"><ele>738.0</ele><time>2026-04-11T15:45:12Z</time></trkpt><trkpt lat="44.324771870522326" lon="10.849370322992892"><ele>738.0</ele><time>2026-04-11T15:45:13Z</time></trkpt><trkpt lat="44.324718300488875" lon="10.84930628735515"><ele>738.0</ele><time>2026-04-11T15:45:14Z</time></trkpt><trkpt lat="44.324682879732" lon="10.84922454063061"><ele>738.0</ele><time>2026-04-11T15:45:15Z</time></trkpt><trkpt lat="44.32461817519894" lon="10.849193389121748"><ele>738.0</ele><time>2026-04-11T15:45:16Z</time></trkpt><trkpt lat="44.324561088363005" lon="10.849096473951247"><ele>738.0</ele><time>2026-04-11T15:45:18Z</time></trkpt><trkpt lat="44.32452294282184" lon="10.849026128942139"><ele>738.0</ele><time>2026-04-11T15:45:21Z</time></trkpt><trkpt lat="44.324565940146194" lon="10.848917149805517"><ele>738.0</ele><time>2026-04-11T15:45:27Z</time></trkpt><trkpt lat="44.32461811655999" lon="10.848785093645956"><ele>738.0</ele><time>2026-04-11T15:45:29Z</time></trkpt><trkpt lat="44.32470899190643" lon="10.84863959345134"><ele>738.0</ele><time>2026-04-11T15:45:31Z</time></trkpt><trkpt lat="44.324748411452646" lon="10.848566884249026"><ele>738.0</ele><time>2026-04-11T15:45:31.999Z</time></trkpt><trkpt lat="44.32480333835749" lon="10.848491372802147"><ele>738.0</ele><time>2026-04-11T15:45:32.999Z</time></trkpt><trkpt lat="44.32486049330387" lon="10.84834025301593"><ele>738.0</ele><time>2026-04-11T15:45:34.999Z</time></trkpt><trkpt lat="44.32489526569192" lon="10.848199266398305"><ele>738.0</ele><time>2026-04-11T15:45:36.999Z</time></trkpt><trkpt lat="44.324921389077005" lon="10.848058107694223"><ele>735.4</ele><time>2026-04-11T15:45:38.999Z</time></trkpt><trkpt lat="44.32492373222533" lon="10.847924798376106"><ele>732.8</ele><time>2026-04-11T15:45:40.999Z</time></trkpt><trkpt lat="44.32492506395651" lon="10.84778010592313"><ele>730.2</ele><time>2026-04-11T15:45:42.999Z</time></trkpt><trkpt lat="44.32488175717143" lon="10.847657082372203"><ele>727.6</ele><time>2026-04-11T15:45:44.999Z</time></trkpt><trkpt lat="44.32482865238661" lon="10.847457604322033"><ele>725.0</ele><time>2026-04-11T15:45:46.999Z</time></trkpt><trkpt lat="44.32480155533894" lon="10.847313286553609"><ele>723.0</ele><time>2026-04-11T15:45:47.999Z</time></trkpt><trkpt lat="44.32478174676989" lon="10.847166056568973"><ele>721.0</ele><time>2026-04-11T15:45:48.999Z</time></trkpt><trkpt lat="44.32473064504361" lon="10.84704142707111"><ele>719.0</ele><time>2026-04-11T15:45:49.999Z</time></trkpt><trkpt lat="44.324694436104" lon="10.84692641397501"><ele>717.0</ele><time>2026-04-11T15:45:50.999Z</time></trkpt><trkpt lat="44.32466785421407" lon="10.846801782909928"><ele>715.0</ele><time>2026-04-11T15:45:51.999Z</time></trkpt><trkpt lat="44.324604179642684" lon="10.846690749256005"><ele>719.0</ele><time>2026-04-11T15:45:52.999Z</time></trkpt><trkpt lat="44.32455802242745" lon="10.846586620562686"><ele>723.0</ele><time>2026-04-11T15:45:53.999Z</time></trkpt><trkpt lat="44.324514486342096" lon="10.84647454209067"><ele>727.0</ele><time>2026-04-11T15:45:54.999Z</time></trkpt><trkpt lat="44.3244617443248" lon="10.846375582227596"><ele>731.0</ele><time>2026-04-11T15:45:55.999Z</time></trkpt><trkpt lat="44.32440186945651" lon="10.846272180871054"><ele>735.0</ele><time>2026-04-11T15:45:56.999Z</time></trkpt><trkpt lat="44.3243227648421" lon="10.846184284994482"><ele>735.0</ele><time>2026-04-11T15:45:57.999Z</time></trkpt><trkpt lat="44.32426790522596" lon="10.846087532840219"><ele>735.0</ele><time>2026-04-11T15:45:58.999Z</time></trkpt><trkpt lat="44.32420880128611" lon="10.845985503313996"><ele>735.0</ele><time>2026-04-11T15:45:59.999Z</time></trkpt><trkpt lat="44.32413986799965" lon="10.84589115504534"><ele>735.0</ele><time>2026-04-11T15:46:00.999Z</time></trkpt><trkpt lat="44.3240721646448" lon="10.84580933842453"><ele>735.0</ele><time>2026-04-11T15:46:01.999Z</time></trkpt><trkpt lat="44.32399232241762" lon="10.845749449286002"><ele>733.0</ele><time>2026-04-11T15:46:02.999Z</time></trkpt><trkpt lat="44.3239376532468" lon="10.845667709946865"><ele>731.0</ele><time>2026-04-11T15:46:03.999Z</time></trkpt><trkpt lat="44.32385626122152" lon="10.845644695439704"><ele>729.0</ele><time>2026-04-11T15:46:04.999Z</time></trkpt><trkpt lat="44.32377719118924" lon="10.84563623854012"><ele>727.0</ele><time>2026-04-11T15:46:05.999Z</time></trkpt><trkpt lat="44.323706482668" lon="10.845669994335884"><ele>725.0</ele><time>2026-04-11T15:46:06.999Z</time></trkpt><trkpt lat="44.32364278528037" lon="10.845737395701821"><ele>723.0</ele><time>2026-04-11T15:46:07.999Z</time></trkpt><trkpt lat="44.32358995119042" lon="10.845843900769843"><ele>726.0</ele><time>2026-04-11T15:46:08.999Z</time></trkpt><trkpt lat="44.323554483391945" lon="10.845969242318816"><ele>729.0</ele><time>2026-04-11T15:46:09.999Z</time></trkpt><trkpt lat="44.32352676590514" lon="10.846087578466115"><ele>732.0</ele><time>2026-04-11T15:46:10.999Z</time></trkpt><trkpt lat="44.3234991810897" lon="10.846192874930038"><ele>735.0</ele><time>2026-04-11T15:46:11.999Z</time></trkpt><trkpt lat="44.323469376379336" lon="10.846298452886236"><ele>738.0</ele><time>2026-04-11T15:46:12.999Z</time></trkpt><trkpt lat="44.323432921832875" lon="10.84640911750915"><ele>741.0</ele><time>2026-04-11T15:46:13.999Z</time></trkpt><trkpt lat="44.32339936381168" lon="10.846490590318512"><ele>741.0</ele><time>2026-04-11T15:46:14.999Z</time></trkpt><trkpt lat="44.32332275608594" lon="10.84658515474022"><ele>741.0</ele><time>2026-04-11T15:46:16.999Z</time></trkpt><trkpt lat="44.323260212998775" lon="10.846617161913112"><ele>741.0</ele><time>2026-04-11T15:46:17.999Z</time></trkpt><trkpt lat="44.3231513067196" lon="10.84660875404791"><ele>741.0</ele><time>2026-04-11T15:46:19.999Z</time></trkpt><trkpt lat="44.323071709310355" lon="10.846600853454827"><ele>741.0</ele><time>2026-04-11T15:46:21.999Z</time></trkpt><trkpt lat="44.32301282618137" lon="10.846150839768809"><ele>741.5</ele><time>2026-04-11T15:46:24.999Z</time></trkpt><trkpt lat="44.322985166273874" lon="10.846050840217284"><ele>742.0</ele><time>2026-04-11T15:46:25.999Z</time></trkpt><trkpt lat="44.32294917121916" lon="10.845935333384016"><ele>742.5</ele><time>2026-04-11T15:46:26.999Z</time></trkpt><trkpt lat="44.322929656847386" lon="10.845821080921901"><ele>743.0</ele><time>2026-04-11T15:46:28Z</time></trkpt><trkpt lat="44.32288799435424" lon="10.845695848715962"><ele>743.5</ele><time>2026-04-11T15:46:29Z</time></trkpt><trkpt lat="44.32285502953813" lon="10.84558025245939"><ele>744.0</ele><time>2026-04-11T15:46:30Z</time></trkpt><trkpt lat="44.32282943329807" lon="10.845444186520337"><ele>740.4000000000001</ele><time>2026-04-11T15:46:31Z</time></trkpt><trkpt lat="44.322771196200044" lon="10.845300920961225"><ele>736.8</ele><time>2026-04-11T15:46:33Z</time></trkpt><trkpt lat="44.32271527845909" lon="10.845126983589989"><ele>733.2</ele><time>2026-04-11T15:46:34Z</time></trkpt><trkpt lat="44.32267828414972" lon="10.845016206517974"><ele>729.5999999999999</ele><time>2026-04-11T15:46:35Z</time></trkpt><trkpt lat="44.32266725172816" lon="10.84487650123851"><ele>726.0</ele><time>2026-04-11T15:46:36Z</time></trkpt><trkpt lat="44.322643277151464" lon="10.844719408179506"><ele>722.25</ele><time>2026-04-11T15:46:37Z</time></trkpt><trkpt lat="44.322618391591384" lon="10.844582101124596"><ele>718.5</ele><time>2026-04-11T15:46:38Z</time></trkpt><trkpt lat="44.32258879106462" lon="10.844432211750771"><ele>714.75</ele><time>2026-04-11T15:46:39Z</time></trkpt><trkpt lat="44.3225624906199" lon="10.844265846194062"><ele>711.0</ele><time>2026-04-11T15:46:40Z</time></trkpt><trkpt lat="44.32254486446224" lon="10.844105088712867"><ele>708.4</ele><time>2026-04-11T15:46:41Z</time></trkpt><trkpt lat="44.322538280147555" lon="10.84393963664525"><ele>705.8</ele><time>2026-04-11T15:46:42Z</time></trkpt><trkpt lat="44.32255774274771" lon="10.843799254622686"><ele>703.1999999999999</ele><time>2026-04-11T15:46:43Z</time></trkpt><trkpt lat="44.322570010522384" lon="10.843667131160851"><ele>700.5999999999999</ele><time>2026-04-11T15:46:44Z</time></trkpt><trkpt lat="44.32257317180357" lon="10.843545835785443"><ele>698.0</ele><time>2026-04-11T15:46:45Z</time></trkpt><trkpt lat="44.32256774347993" lon="10.84343614712327"><ele>696.6666666666666</ele><time>2026-04-11T15:46:46Z</time></trkpt><trkpt lat="44.32256053484233" lon="10.84332255870886"><ele>695.3333333333333</ele><time>2026-04-11T15:46:47Z</time></trkpt><trkpt lat="44.32255673046209" lon="10.843217935348877"><ele>694.0</ele><time>2026-04-11T15:46:48Z</time></trkpt><trkpt lat="44.322550720093005" lon="10.843120910308249"><ele>692.6666666666666</ele><time>2026-04-11T15:46:49Z</time></trkpt><trkpt lat="44.3225452939301" lon="10.84302941084046"><ele>691.3333333333334</ele><time>2026-04-11T15:46:50Z</time></trkpt><trkpt lat="44.32255292681665" lon="10.842859745573659"><ele>690.0</ele><time>2026-04-11T15:46:52Z</time></trkpt><trkpt lat="44.322574803364326" lon="10.842763163109035"><ele>690.0</ele><time>2026-04-11T15:46:53Z</time></trkpt><trkpt lat="44.32258807217101" lon="10.8426659756299"><ele>690.0</ele><time>2026-04-11T15:46:54Z</time></trkpt><trkpt lat="44.322610067544794" lon="10.842514300236717"><ele>690.0</ele><time>2026-04-11T15:46:56Z</time></trkpt><trkpt lat="44.32264191303731" lon="10.842352489922314"><ele>690.0</ele><time>2026-04-11T15:46:58Z</time></trkpt><trkpt lat="44.322600922228695" lon="10.842139838160332"><ele>688.4</ele><time>2026-04-11T15:47:00Z</time></trkpt><trkpt lat="44.322628797752685" lon="10.842012602915586"><ele>686.8</ele><time>2026-04-11T15:47:01Z</time></trkpt><trkpt lat="44.32265087054986" lon="10.841915456528358"><ele>685.2</ele><time>2026-04-11T15:47:02Z</time></trkpt><trkpt lat="44.32267940634036" lon="10.8417863678275"><ele>683.6</ele><time>2026-04-11T15:47:03Z</time></trkpt><trkpt lat="44.32270869493985" lon="10.841646974421668"><ele>682.0</ele><time>2026-04-11T15:47:04Z</time></trkpt><trkpt lat="44.32273482575323" lon="10.841522608978783"><ele>681.0</ele><time>2026-04-11T15:47:05Z</time></trkpt><trkpt lat="44.322780081496376" lon="10.841403975298402"><ele>680.0</ele><time>2026-04-11T15:47:06Z</time></trkpt><trkpt lat="44.32279755465727" lon="10.841295238375242"><ele>679.0</ele><time>2026-04-11T15:47:07Z</time></trkpt><trkpt lat="44.322811668333046" lon="10.841207408643568"><ele>678.0</ele><time>2026-04-11T15:47:08Z</time></trkpt><trkpt lat="44.32282809909678" lon="10.841093125268905"><ele>677.0</ele><time>2026-04-11T15:47:10Z</time></trkpt><trkpt lat="44.32282724477376" lon="10.841004317073477"><ele>676.0</ele><time>2026-04-11T15:47:11Z</time></trkpt><trkpt lat="44.32285889276592" lon="10.840817338725662"><ele>676.0</ele><time>2026-04-11T15:47:13Z</time></trkpt><trkpt lat="44.3229104176665" lon="10.840749207525798"><ele>676.0</ele><time>2026-04-11T15:47:14Z</time></trkpt><trkpt lat="44.32299061599407" lon="10.84073990162863"><ele>676.0</ele><time>2026-04-11T15:47:15Z</time></trkpt><trkpt lat="44.32308072119936" lon="10.840731448468505"><ele>676.0</ele><time>2026-04-11T15:47:16Z</time></trkpt><trkpt lat="44.32316404179661" lon="10.840740739348087"><ele>676.0</ele><time>2026-04-11T15:47:17Z</time></trkpt><trkpt lat="44.323271315279754" lon="10.840749257800617"><ele>676.0</ele><time>2026-04-11T15:47:18Z</time></trkpt><trkpt lat="44.32341388375318" lon="10.840745668676282"><ele>676.0</ele><time>2026-04-11T15:47:19Z</time></trkpt><trkpt lat="44.323538414660504" lon="10.840743392976407"><ele>676.0</ele><time>2026-04-11T15:47:20Z</time></trkpt><trkpt lat="44.32365457958606" lon="10.8407559102894"><ele>676.0</ele><time>2026-04-11T15:47:21Z</time></trkpt><trkpt lat="44.32374730647849" lon="10.840760988199069"><ele>676.0</ele><time>2026-04-11T15:47:22Z</time></trkpt><trkpt lat="44.32382576952845" lon="10.840762650786898"><ele>676.0</ele><time>2026-04-11T15:47:23Z</time></trkpt><trkpt lat="44.32389516103836" lon="10.840755631668246"><ele>676.5</ele><time>2026-04-11T15:47:24Z</time></trkpt><trkpt lat="44.324026562919606" lon="10.840699133451398"><ele>677.0</ele><time>2026-04-11T15:47:26Z</time></trkpt><trkpt lat="44.324060939751156" lon="10.840563715417634"><ele>677.5</ele><time>2026-04-11T15:47:27Z</time></trkpt><trkpt lat="44.324021480810416" lon="10.840398502735159"><ele>678.0</ele><time>2026-04-11T15:47:28Z</time></trkpt><trkpt lat="44.32401821434235" lon="10.840249394798548"><ele>677.8</ele><time>2026-04-11T15:47:29Z</time></trkpt><trkpt lat="44.324022286743336" lon="10.840117395661759"><ele>677.5999999999999</ele><time>2026-04-11T15:47:30Z</time></trkpt><trkpt lat="44.32402289867045" lon="10.839991572248577"><ele>677.4000000000001</ele><time>2026-04-11T15:47:31Z</time></trkpt><trkpt lat="44.324019793176674" lon="10.839855773815442"><ele>677.2</ele><time>2026-04-11T15:47:32Z</time></trkpt><trkpt lat="44.32402112850078" lon="10.839716775252482"><ele>677.0</ele><time>2026-04-11T15:47:33Z</time></trkpt><trkpt lat="44.32402330328675" lon="10.839561129736527"><ele>677.0</ele><time>2026-04-11T15:47:34Z</time></trkpt><trkpt lat="44.32401959653307" lon="10.839424773035342"><ele>677.0</ele><time>2026-04-11T15:47:34.999Z</time></trkpt><trkpt lat="44.32401795916927" lon="10.839306689669819"><ele>677.0</ele><time>2026-04-11T15:47:35.999Z</time></trkpt><trkpt lat="44.32401726976232" lon="10.839175453256537"><ele>677.0</ele><time>2026-04-11T15:47:36.999Z</time></trkpt><trkpt lat="44.324017781227035" lon="10.839077908350538"><ele>677.0</ele><time>2026-04-11T15:47:37.999Z</time></trkpt><trkpt lat="44.32402858561426" lon="10.838886698646812"><ele>677.0</ele><time>2026-04-11T15:47:39.999Z</time></trkpt><trkpt lat="44.32402933048171" lon="10.838788142773929"><ele>677.0</ele><time>2026-04-11T15:47:41.999Z</time></trkpt><trkpt lat="44.323900382829244" lon="10.838459486938794"><ele>677.0</ele><time>2026-04-11T15:47:42.999Z</time></trkpt><trkpt lat="44.323818738813266" lon="10.838459860666163"><ele>677.0</ele><time>2026-04-11T15:48:27.999Z</time></trkpt><trkpt lat="44.32374995674772" lon="10.838460447464367"><ele>676.0</ele><time>2026-04-11T15:48:49Z</time></trkpt><trkpt lat="44.323742297633835" lon="10.838754302315511"><ele>675.0</ele><time>2026-04-11T15:48:52Z</time></trkpt><trkpt lat="44.32370044944367" lon="10.838676694032996"><ele>674.0</ele><time>2026-04-11T15:48:59Z</time></trkpt><trkpt lat="44.32377104504527" lon="10.83865492038752"><ele>673.0</ele><time>2026-04-11T15:49:03Z</time></trkpt><trkpt lat="44.32377815257419" lon="10.838563275883994"><ele>672.0</ele><time>2026-04-11T15:49:06Z</time></trkpt><trkpt lat="44.32385986251887" lon="10.838521390304393"><ele>672.0</ele><time>2026-04-11T15:49:08Z</time></trkpt><trkpt lat="44.32380188574546" lon="10.838719081497384"><ele>672.0</ele><time>2026-04-11T15:49:29.475Z</time></trkpt><trkpt lat="44.32421461536538" lon="10.838190658221832"><ele>673.6666666666666</ele><time>2026-04-11T15:50:33.014Z</time></trkpt><trkpt lat="44.32435349907601" lon="10.838402332749615"><ele>675.3333333333333</ele><time>2026-04-11T15:50:34.018Z</time></trkpt><trkpt lat="44.32419958228315" lon="10.838637790043673"><ele>677.0</ele><time>2026-04-11T15:50:34.999Z</time></trkpt><trkpt lat="44.32414766927619" lon="10.838727123573412"><ele>677.0</ele><time>2026-04-11T15:50:38.999Z</time></trkpt><trkpt lat="44.324083445750986" lon="10.838770144156971"><ele>677.0</ele><time>2026-04-11T15:50:41Z</time></trkpt><trkpt lat="44.324011413866" lon="10.838793513593016"><ele>677.0</ele><time>2026-04-11T15:50:44Z</time></trkpt><trkpt lat="44.32394464571103" lon="10.838834385823393"><ele>677.0</ele><time>2026-04-11T15:50:48Z</time></trkpt><trkpt lat="44.32388005010856" lon="10.838822929209023"><ele>677.0</ele><time>2026-04-11T15:50:54Z</time></trkpt><trkpt lat="44.3239810742556" lon="10.838865366721203"><ele>677.0</ele><time>2026-04-11T15:57:46Z</time></trkpt><trkpt lat="44.32399787822303" lon="10.839017145107782"><ele>677.0</ele><time>2026-04-11T15:57:47.999Z</time></trkpt><trkpt lat="44.32398968483855" lon="10.839139040019518"><ele>677.0</ele><time>2026-04-11T15:57:48.999Z</time></trkpt><trkpt lat="44.323989962206724" lon="10.8392662058475"><ele>677.0</ele><time>2026-04-11T15:57:49.999Z</time></trkpt><trkpt lat="44.32399126955327" lon="10.83941376414692"><ele>677.0</ele><time>2026-04-11T15:57:50.999Z</time></trkpt><trkpt lat="44.32399074583384" lon="10.8395868014305"><ele>677.0</ele><time>2026-04-11T15:57:51.999Z</time></trkpt><trkpt lat="44.32398901324865" lon="10.839786414568152"><ele>677.0</ele><time>2026-04-11T15:57:52.999Z</time></trkpt><trkpt lat="44.323980349063945" lon="10.840031697644903"><ele>677.0</ele><time>2026-04-11T15:57:53.999Z</time></trkpt><trkpt lat="44.323966407237904" lon="10.840266981302708"><ele>677.0</ele><time>2026-04-11T15:57:54.999Z</time></trkpt><trkpt lat="44.32396366776366" lon="10.840439285314128"><ele>677.2</ele><time>2026-04-11T15:57:55.999Z</time></trkpt><trkpt lat="44.32398012486164" lon="10.840571398364398"><ele>677.4000000000001</ele><time>2026-04-11T15:57:56.999Z</time></trkpt><trkpt lat="44.323970783212424" lon="10.840666590827944"><ele>677.5999999999999</ele><time>2026-04-11T15:57:57.999Z</time></trkpt><trkpt lat="44.323936848904175" lon="10.840743273427794"><ele>677.8</ele><time>2026-04-11T15:57:58.999Z</time></trkpt><trkpt lat="44.323784520852975" lon="10.84074468178029"><ele>678.0</ele><time>2026-04-11T15:58:00.999Z</time></trkpt><trkpt lat="44.323653492170266" lon="10.840742187187717"><ele>677.5</ele><time>2026-04-11T15:58:01.999Z</time></trkpt><trkpt lat="44.3235139563123" lon="10.840749033267079"><ele>677.0</ele><time>2026-04-11T15:58:02.999Z</time></trkpt><trkpt lat="44.323384593198504" lon="10.840753800334028"><ele>676.5</ele><time>2026-04-11T15:58:03.999Z</time></trkpt><trkpt lat="44.32327406329247" lon="10.840713831407939"><ele>676.0</ele><time>2026-04-11T15:58:04.999Z</time></trkpt><trkpt lat="44.32318217249097" lon="10.840711656670113"><ele>676.0</ele><time>2026-04-11T15:58:05.999Z</time></trkpt><trkpt lat="44.32308999153955" lon="10.840709475063168"><ele>676.0</ele><time>2026-04-11T15:58:06.999Z</time></trkpt><trkpt lat="44.32299952923933" lon="10.840734324372322"><ele>676.0</ele><time>2026-04-11T15:58:07.999Z</time></trkpt><trkpt lat="44.32290695485833" lon="10.840751692083352"><ele>676.0</ele><time>2026-04-11T15:58:08.999Z</time></trkpt><trkpt lat="44.32284723309191" lon="10.840784047106588"><ele>676.0</ele><time>2026-04-11T15:58:09.999Z</time></trkpt><trkpt lat="44.322805824356905" lon="10.84088606364781"><ele>676.0</ele><time>2026-04-11T15:58:10.999Z</time></trkpt><trkpt lat="44.32280334498919" lon="10.841005420118309"><ele>676.0</ele><time>2026-04-11T15:58:11.999Z</time></trkpt><trkpt lat="44.32277681363333" lon="10.841105833116808"><ele>676.0</ele><time>2026-04-11T15:58:12.999Z</time></trkpt><trkpt lat="44.32276059080132" lon="10.841206788120232"><ele>676.0</ele><time>2026-04-11T15:58:14.999Z</time></trkpt><trkpt lat="44.322737059214916" lon="10.841353226301578"><ele>676.0</ele><time>2026-04-11T15:58:16.999Z</time></trkpt><trkpt lat="44.322715750057284" lon="10.841441167514745"><ele>676.0</ele><time>2026-04-11T15:58:17.999Z</time></trkpt><trkpt lat="44.32269347076957" lon="10.841552263480251"><ele>676.0</ele><time>2026-04-11T15:58:18.999Z</time></trkpt><trkpt lat="44.32267469799108" lon="10.841645874743888"><ele>676.0</ele><time>2026-04-11T15:58:19.999Z</time></trkpt><trkpt lat="44.322650639921214" lon="10.841758170821228"><ele>676.0</ele><time>2026-04-11T15:58:20.999Z</time></trkpt><trkpt lat="44.3226276930296" lon="10.841862984214142"><ele>676.0</ele><time>2026-04-11T15:58:21.999Z</time></trkpt><trkpt lat="44.32260179141784" lon="10.841979340439089"><ele>676.0</ele><time>2026-04-11T15:58:22.999Z</time></trkpt><trkpt lat="44.32257557732654" lon="10.842071897168992"><ele>676.0</ele><time>2026-04-11T15:58:23.999Z</time></trkpt><trkpt lat="44.32254039212849" lon="10.842168986059434"><ele>676.0</ele><time>2026-04-11T15:58:24.999Z</time></trkpt><trkpt lat="44.32247148745572" lon="10.842307459323841"><ele>677.5</ele><time>2026-04-11T15:58:26.999Z</time></trkpt><trkpt lat="44.32261566413542" lon="10.842549048084319"><ele>679.0</ele><time>2026-04-11T15:58:27.999Z</time></trkpt><trkpt lat="44.3225762987045" lon="10.842725876187009"><ele>680.5</ele><time>2026-04-11T15:58:29.999Z</time></trkpt><trkpt lat="44.32256355635095" lon="10.842840976426391"><ele>682.0</ele><time>2026-04-11T15:58:30.999Z</time></trkpt><trkpt lat="44.32255342771866" lon="10.842948518887379"><ele>683.6</ele><time>2026-04-11T15:58:31.999Z</time></trkpt><trkpt lat="44.32254549849503" lon="10.843063220315775"><ele>685.2</ele><time>2026-04-11T15:58:32.999Z</time></trkpt><trkpt lat="44.32254329455698" lon="10.843176112848845"><ele>686.8</ele><time>2026-04-11T15:58:33.999Z</time></trkpt><trkpt lat="44.322558986226994" lon="10.843325594786851"><ele>688.4</ele><time>2026-04-11T15:58:34.999Z</time></trkpt><trkpt lat="44.32256649398899" lon="10.843478037696281"><ele>690.0</ele><time>2026-04-11T15:58:35.999Z</time></trkpt><trkpt lat="44.32256886138957" lon="10.843660293824959"><ele>692.0</ele><time>2026-04-11T15:58:36.999Z</time></trkpt><trkpt lat="44.32256823414934" lon="10.843844051534031"><ele>694.0</ele><time>2026-04-11T15:58:37.999Z</time></trkpt><trkpt lat="44.322569998795146" lon="10.844030562038851"><ele>696.0</ele><time>2026-04-11T15:58:38.999Z</time></trkpt><trkpt lat="44.32257758222347" lon="10.84422551901166"><ele>698.0</ele><time>2026-04-11T15:58:39.999Z</time></trkpt><trkpt lat="44.32259496208619" lon="10.844386597437543"><ele>701.25</ele><time>2026-04-11T15:58:40.999Z</time></trkpt><trkpt lat="44.322617335376734" lon="10.844548032532481"><ele>704.5</ele><time>2026-04-11T15:58:41.999Z</time></trkpt><trkpt lat="44.322638876031995" lon="10.84473930929581"><ele>707.75</ele><time>2026-04-11T15:58:42.999Z</time></trkpt><trkpt lat="44.32268420217577" lon="10.844956952838885"><ele>711.0</ele><time>2026-04-11T15:58:43.999Z</time></trkpt><trkpt lat="44.32272395203055" lon="10.845151712833154"><ele>714.75</ele><time>2026-04-11T15:58:44.999Z</time></trkpt><trkpt lat="44.32276593334062" lon="10.845340127052513"><ele>718.5</ele><time>2026-04-11T15:58:45.999Z</time></trkpt><trkpt lat="44.322797218705325" lon="10.845535569368526"><ele>722.25</ele><time>2026-04-11T15:58:46.999Z</time></trkpt><trkpt lat="44.32285751889504" lon="10.845736113695363"><ele>726.0</ele><time>2026-04-11T15:58:47.999Z</time></trkpt><trkpt lat="44.322944645915086" lon="10.84594674269624"><ele>729.0</ele><time>2026-04-11T15:58:48.999Z</time></trkpt><trkpt lat="44.32301529335266" lon="10.84614002996657"><ele>732.0</ele><time>2026-04-11T15:58:49.999Z</time></trkpt><trkpt lat="44.323066728444964" lon="10.846267607191004"><ele>735.0</ele><time>2026-04-11T15:58:50.999Z</time></trkpt><trkpt lat="44.32311565718689" lon="10.8463851960721"><ele>738.0</ele><time>2026-04-11T15:58:51.999Z</time></trkpt><trkpt lat="44.32316935982683" lon="10.84647775625785"><ele>741.0</ele><time>2026-04-11T15:58:52.998Z</time></trkpt><trkpt lat="44.32322227792592" lon="10.84653610212728"><ele>741.0</ele><time>2026-04-11T15:58:53.998Z</time></trkpt><trkpt lat="44.3233060016835" lon="10.84656285873981"><ele>741.0</ele><time>2026-04-11T15:58:55.998Z</time></trkpt><trkpt lat="44.32328226538127" lon="10.846664251006146"><ele>741.0</ele><time>2026-04-11T15:58:58.998Z</time></trkpt><trkpt lat="44.32315976992832" lon="10.846650930651224"><ele>741.0</ele><time>2026-04-11T15:59:00.998Z</time></trkpt><trkpt lat="44.323080968573564" lon="10.846642679376538"><ele>741.0</ele><time>2026-04-11T15:59:01.998Z</time></trkpt><trkpt lat="44.32299356747372" lon="10.84666107653294"><ele>741.5999999999999</ele><time>2026-04-11T15:59:02.998Z</time></trkpt><trkpt lat="44.32287088839988" lon="10.84667751143356"><ele>742.2</ele><time>2026-04-11T15:59:04Z</time></trkpt><trkpt lat="44.322798578477745" lon="10.846696887109067"><ele>742.8</ele><time>2026-04-11T15:59:05Z</time></trkpt><trkpt lat="44.32271609454643" lon="10.846737732425416"><ele>743.4000000000001</ele><time>2026-04-11T15:59:06Z</time></trkpt><trkpt lat="44.32263583653316" lon="10.846770906308823"><ele>744.0</ele><time>2026-04-11T15:59:07Z</time></trkpt><trkpt lat="44.322551319602" lon="10.846797876159163"><ele>744.0</ele><time>2026-04-11T15:59:08Z</time></trkpt><trkpt lat="44.32244413875046" lon="10.846826142666917"><ele>744.0</ele><time>2026-04-11T15:59:09Z</time></trkpt><trkpt lat="44.32234062577012" lon="10.846836555051"><ele>744.0</ele><time>2026-04-11T15:59:10Z</time></trkpt><trkpt lat="44.322264608483906" lon="10.846758850292385"><ele>744.0</ele><time>2026-04-11T15:59:11Z</time></trkpt><trkpt lat="44.322215277994395" lon="10.846643909162541"><ele>744.0</ele><time>2026-04-11T15:59:12Z</time></trkpt><trkpt lat="44.322197617661345" lon="10.8465018627607"><ele>746.6</ele><time>2026-04-11T15:59:13Z</time></trkpt><trkpt lat="44.32216090221511" lon="10.846378951143341"><ele>749.2</ele><time>2026-04-11T15:59:14Z</time></trkpt><trkpt lat="44.322119588814935" lon="10.846295902547507"><ele>751.8000000000001</ele><time>2026-04-11T15:59:15Z</time></trkpt><trkpt lat="44.321999666718085" lon="10.846274945605643"><ele>754.4000000000001</ele><time>2026-04-11T15:59:17Z</time></trkpt><trkpt lat="44.321945615961255" lon="10.846329970730999"><ele>757.0</ele><time>2026-04-11T15:59:18Z</time></trkpt><trkpt lat="44.32194948297615" lon="10.84646679383076"><ele>757.0</ele><time>2026-04-11T15:59:19Z</time></trkpt><trkpt lat="44.32200809047157" lon="10.84660694089214"><ele>757.0</ele><time>2026-04-11T15:59:20Z</time></trkpt><trkpt lat="44.32205432770064" lon="10.84672122321988"><ele>757.0</ele><time>2026-04-11T15:59:21Z</time></trkpt><trkpt lat="44.32208823950979" lon="10.846844738095998"><ele>757.0</ele><time>2026-04-11T15:59:22Z</time></trkpt><trkpt lat="44.322114734562184" lon="10.846980842553066"><ele>757.0</ele><time>2026-04-11T15:59:23Z</time></trkpt><trkpt lat="44.32212033166982" lon="10.847096264981484"><ele>754.8</ele><time>2026-04-11T15:59:24Z</time></trkpt><trkpt lat="44.322105134032526" lon="10.847215079467546"><ele>752.6</ele><time>2026-04-11T15:59:25Z</time></trkpt><trkpt lat="44.32204478825338" lon="10.847318802424981"><ele>750.4</ele><time>2026-04-11T15:59:27Z</time></trkpt><trkpt lat="44.3219426170921" lon="10.847306690713276"><ele>748.1999999999999</ele><time>2026-04-11T15:59:29Z</time></trkpt><trkpt lat="44.321820066022525" lon="10.847241540050058"><ele>746.0</ele><time>2026-04-11T15:59:31Z</time></trkpt><trkpt lat="44.32175371661443" lon="10.847217230868567"><ele>746.0</ele><time>2026-04-11T15:59:32Z</time></trkpt><trkpt lat="44.32168775186381" lon="10.847200631309411"><ele>746.0</ele><time>2026-04-11T15:59:33Z</time></trkpt><trkpt lat="44.321625088031006" lon="10.847184173004054"><ele>746.0</ele><time>2026-04-11T15:59:34Z</time></trkpt><trkpt lat="44.32155937722895" lon="10.847159966328276"><ele>746.0</ele><time>2026-04-11T15:59:35Z</time></trkpt><trkpt lat="44.32146531496422" lon="10.847116712832461"><ele>746.0</ele><time>2026-04-11T15:59:36Z</time></trkpt><trkpt lat="44.32139599078102" lon="10.84703764274806"><ele>746.0</ele><time>2026-04-11T15:59:37Z</time></trkpt><trkpt lat="44.321339715751" lon="10.846996652202268"><ele>745.8</ele><time>2026-04-11T15:59:38Z</time></trkpt><trkpt lat="44.32125173433682" lon="10.846948353870259"><ele>745.5999999999999</ele><time>2026-04-11T15:59:40Z</time></trkpt><trkpt lat="44.3211870869168" lon="10.846899462324739"><ele>745.4</ele><time>2026-04-11T15:59:41Z</time></trkpt><trkpt lat="44.32110518358659" lon="10.846840691545188"><ele>745.2</ele><time>2026-04-11T15:59:42Z</time></trkpt><trkpt lat="44.321017113254115" lon="10.846769846661678"><ele>745.0</ele><time>2026-04-11T15:59:43Z</time></trkpt><trkpt lat="44.32093827655613" lon="10.84668938872649"><ele>747.4</ele><time>2026-04-11T15:59:44Z</time></trkpt><trkpt lat="44.32083433594728" lon="10.846611848754264"><ele>749.8</ele><time>2026-04-11T15:59:45Z</time></trkpt><trkpt lat="44.32075757833324" lon="10.846523664396749"><ele>752.2</ele><time>2026-04-11T15:59:46Z</time></trkpt><trkpt lat="44.32067929139593" lon="10.846423730046775"><ele>754.6</ele><time>2026-04-11T15:59:47Z</time></trkpt><trkpt lat="44.320608229012656" lon="10.84631966406129"><ele>757.0</ele><time>2026-04-11T15:59:48Z</time></trkpt><trkpt lat="44.3205389966694" lon="10.846217892232552"><ele>757.0</ele><time>2026-04-11T15:59:48.999Z</time></trkpt><trkpt lat="44.320456942552674" lon="10.846109312382845"><ele>757.0</ele><time>2026-04-11T15:59:49.999Z</time></trkpt><trkpt lat="44.32037880180767" lon="10.845996360579637"><ele>757.0</ele><time>2026-04-11T15:59:50.999Z</time></trkpt><trkpt lat="44.32029662603163" lon="10.845885165658196"><ele>757.0</ele><time>2026-04-11T15:59:51.999Z</time></trkpt><trkpt lat="44.32020581301526" lon="10.845777914119683"><ele>759.0</ele><time>2026-04-11T15:59:52.999Z</time></trkpt><trkpt lat="44.32011296283525" lon="10.845672566349023"><ele>761.0</ele><time>2026-04-11T15:59:53.999Z</time></trkpt><trkpt lat="44.32003051851338" lon="10.845580054861252"><ele>763.0</ele><time>2026-04-11T15:59:54.999Z</time></trkpt><trkpt lat="44.31994247022512" lon="10.845492189771473"><ele>765.0</ele><time>2026-04-11T15:59:55.999Z</time></trkpt><trkpt lat="44.31984612806173" lon="10.845419178987154"><ele>767.0</ele><time>2026-04-11T15:59:56.999Z</time></trkpt><trkpt lat="44.31974423034637" lon="10.845336158190078"><ele>765.75</ele><time>2026-04-11T15:59:57.999Z</time></trkpt><trkpt lat="44.319648649731825" lon="10.845271247520941"><ele>764.5</ele><time>2026-04-11T15:59:58.999Z</time></trkpt><trkpt lat="44.31953893019093" lon="10.845215824372804"><ele>763.25</ele><time>2026-04-11T15:59:59.999Z</time></trkpt><trkpt lat="44.31943048704286" lon="10.845160807661498"><ele>762.0</ele><time>2026-04-11T16:00:00.999Z</time></trkpt><trkpt lat="44.319324524784165" lon="10.845101276782882"><ele>762.0</ele><time>2026-04-11T16:00:01.999Z</time></trkpt><trkpt lat="44.31921945935684" lon="10.84501449324"><ele>762.0</ele><time>2026-04-11T16:00:02.999Z</time></trkpt><trkpt lat="44.31912737000547" lon="10.844905456902556"><ele>762.0</ele><time>2026-04-11T16:00:03.999Z</time></trkpt><trkpt lat="44.31904265102744" lon="10.844794866022086"><ele>762.0</ele><time>2026-04-11T16:00:04.999Z</time></trkpt><trkpt lat="44.31897432886541" lon="10.844677082268193"><ele>762.0</ele><time>2026-04-11T16:00:05.999Z</time></trkpt><trkpt lat="44.31894566395507" lon="10.844533547467288"><ele>762.0</ele><time>2026-04-11T16:00:06.999Z</time></trkpt><trkpt lat="44.31889260052653" lon="10.844392576865324"><ele>762.0</ele><time>2026-04-11T16:00:07.999Z</time></trkpt><trkpt lat="44.31885392945623" lon="10.844266840262277"><ele>762.0</ele><time>2026-04-11T16:00:08.999Z</time></trkpt><trkpt lat="44.318805636871474" lon="10.844164966038857"><ele>762.0</ele><time>2026-04-11T16:00:09.999Z</time></trkpt><trkpt lat="44.31873352311875" lon="10.844062987269448"><ele>762.3333333333334</ele><time>2026-04-11T16:00:10.999Z</time></trkpt><trkpt lat="44.31862924970174" lon="10.843946078780098"><ele>762.6666666666667</ele><time>2026-04-11T16:00:11.999Z</time></trkpt><trkpt lat="44.31850310020328" lon="10.843844120796799"><ele>763.0</ele><time>2026-04-11T16:00:12.999Z</time></trkpt><trkpt lat="44.31833698765226" lon="10.843752167833474"><ele>763.0</ele><time>2026-04-11T16:00:13.999Z</time></trkpt><trkpt lat="44.318149745638074" lon="10.843667772024533"><ele>763.0</ele><time>2026-04-11T16:00:14.999Z</time></trkpt><trkpt lat="44.31796526800773" lon="10.843589917225136"><ele>763.0</ele><time>2026-04-11T16:00:15.999Z</time></trkpt><trkpt lat="44.31780337977414" lon="10.843514358309461"><ele>762.0</ele><time>2026-04-11T16:00:16.999Z</time></trkpt><trkpt lat="44.31767202597299" lon="10.843463869536082"><ele>761.0</ele><time>2026-04-11T16:00:17.999Z</time></trkpt><trkpt lat="44.31751768428941" lon="10.843408598144196"><ele>760.0</ele><time>2026-04-11T16:00:18.999Z</time></trkpt><trkpt lat="44.317377735018184" lon="10.843363321735408"><ele>759.0</ele><time>2026-04-11T16:00:19.999Z</time></trkpt><trkpt lat="44.317238143741456" lon="10.843297677836864"><ele>758.3333333333334</ele><time>2026-04-11T16:00:20.999Z</time></trkpt><trkpt lat="44.31710941414196" lon="10.843222536883516"><ele>757.6666666666667</ele><time>2026-04-11T16:00:21.999Z</time></trkpt><trkpt lat="44.31697234582885" lon="10.843114715296057"><ele>757.0</ele><time>2026-04-11T16:00:22.999Z</time></trkpt><trkpt lat="44.316838834885004" lon="10.842984430156204"><ele>757.0</ele><time>2026-04-11T16:00:23.999Z</time></trkpt><trkpt lat="44.31670802502945" lon="10.84284242299045"><ele>757.0</ele><time>2026-04-11T16:00:24.999Z</time></trkpt><trkpt lat="44.3166052477845" lon="10.842709771449258"><ele>757.0</ele><time>2026-04-11T16:00:25.999Z</time></trkpt><trkpt lat="44.31652542512458" lon="10.84258338995251"><ele>757.0</ele><time>2026-04-11T16:00:26.999Z</time></trkpt><trkpt lat="44.31647521681913" lon="10.84243030810568"><ele>757.2</ele><time>2026-04-11T16:00:27.999Z</time></trkpt><trkpt lat="44.31642381670579" lon="10.842297887873235"><ele>757.4000000000001</ele><time>2026-04-11T16:00:28.999Z</time></trkpt><trkpt lat="44.316398530977295" lon="10.842155580840497"><ele>757.5999999999999</ele><time>2026-04-11T16:00:29.999Z</time></trkpt><trkpt lat="44.31637428531072" lon="10.842025974066916"><ele>757.8</ele><time>2026-04-11T16:00:30.999Z</time></trkpt><trkpt lat="44.3163490851699" lon="10.841900666645104"><ele>758.0</ele><time>2026-04-11T16:00:31.999Z</time></trkpt><trkpt lat="44.316317911008355" lon="10.841777627802315"><ele>756.5999999999999</ele><time>2026-04-11T16:00:32.999Z</time></trkpt><trkpt lat="44.31627239159872" lon="10.84168402002023"><ele>755.1999999999999</ele><time>2026-04-11T16:00:33.999Z</time></trkpt><trkpt lat="44.316198593512894" lon="10.841625933058095"><ele>753.8</ele><time>2026-04-11T16:00:34.999Z</time></trkpt><trkpt lat="44.316095310146274" lon="10.841621606388792"><ele>752.4</ele><time>2026-04-11T16:00:35.999Z</time></trkpt><trkpt lat="44.31597237837125" lon="10.84164698813133"><ele>751.0</ele><time>2026-04-11T16:00:36.999Z</time></trkpt><trkpt lat="44.3158234889502" lon="10.841630734375103"><ele>751.0</ele><time>2026-04-11T16:00:37.999Z</time></trkpt><trkpt lat="44.31567462455415" lon="10.841602094655794"><ele>751.0</ele><time>2026-04-11T16:00:38.999Z</time></trkpt><trkpt lat="44.31549880428563" lon="10.841584864807963"><ele>751.0</ele><time>2026-04-11T16:00:39.999Z</time></trkpt><trkpt lat="44.31531694976944" lon="10.841547501027547"><ele>748.6666666666667</ele><time>2026-04-11T16:00:40.999Z</time></trkpt><trkpt lat="44.31514456208956" lon="10.841529146626076"><ele>746.3333333333334</ele><time>2026-04-11T16:00:41.999Z</time></trkpt><trkpt lat="44.314999098923565" lon="10.841508320019457"><ele>744.0</ele><time>2026-04-11T16:00:42.999Z</time></trkpt><trkpt lat="44.31485206957142" lon="10.84148108668647"><ele>743.75</ele><time>2026-04-11T16:00:43.999Z</time></trkpt><trkpt lat="44.31471263179453" lon="10.841455275479534"><ele>743.5</ele><time>2026-04-11T16:00:44.999Z</time></trkpt><trkpt lat="44.31457815756141" lon="10.841444472789437"><ele>743.25</ele><time>2026-04-11T16:00:45.999Z</time></trkpt><trkpt lat="44.314458215065926" lon="10.841438128457172"><ele>743.0</ele><time>2026-04-11T16:00:46.999Z</time></trkpt><trkpt lat="44.31433351440748" lon="10.841432116632381"><ele>743.0</ele><time>2026-04-11T16:00:47.999Z</time></trkpt><trkpt lat="44.31422545915123" lon="10.841408285392719"><ele>743.0</ele><time>2026-04-11T16:00:48.999Z</time></trkpt><trkpt lat="44.314111724221355" lon="10.841371804339493"><ele>743.0</ele><time>2026-04-11T16:00:49.999Z</time></trkpt><trkpt lat="44.31400855396532" lon="10.84132970719052"><ele>743.0</ele><time>2026-04-11T16:00:50.999Z</time></trkpt><trkpt lat="44.31391543734334" lon="10.84129718814372"><ele>743.0</ele><time>2026-04-11T16:00:51.999Z</time></trkpt><trkpt lat="44.3138298532638" lon="10.841278707010918"><ele>742.4</ele><time>2026-04-11T16:00:52.999Z</time></trkpt><trkpt lat="44.31374755806919" lon="10.841267346701343"><ele>741.8</ele><time>2026-04-11T16:00:53.999Z</time></trkpt><trkpt lat="44.31365604871398" lon="10.841240990768313"><ele>741.2</ele><time>2026-04-11T16:00:55.998Z</time></trkpt><trkpt lat="44.31364297538427" lon="10.841037936975644"><ele>740.6</ele><time>2026-04-11T16:00:58.998Z</time></trkpt><trkpt lat="44.313629052411684" lon="10.840948265784473"><ele>740.0</ele><time>2026-04-11T16:00:59.998Z</time></trkpt><trkpt lat="44.31363777793975" lon="10.840821245600084"><ele>742.5</ele><time>2026-04-11T16:01:01.998Z</time></trkpt><trkpt lat="44.31364122749018" lon="10.84062460263255"><ele>745.0</ele><time>2026-04-11T16:01:03.998Z</time></trkpt><trkpt lat="44.31363685000039" lon="10.840513633501661"><ele>747.5</ele><time>2026-04-11T16:01:04.998Z</time></trkpt><trkpt lat="44.31363530310649" lon="10.840418489403957"><ele>750.0</ele><time>2026-04-11T16:01:05.998Z</time></trkpt><trkpt lat="44.31361616386929" lon="10.840316495658726"><ele>752.5</ele><time>2026-04-11T16:01:06.998Z</time></trkpt><trkpt lat="44.31358707042308" lon="10.840214452165723"><ele>755.0</ele><time>2026-04-11T16:01:07.998Z</time></trkpt><trkpt lat="44.313532063910124" lon="10.840054538878864"><ele>756.6</ele><time>2026-04-11T16:01:08.998Z</time></trkpt><trkpt lat="44.31349167189167" lon="10.83987403777999"><ele>758.2</ele><time>2026-04-11T16:01:10Z</time></trkpt><trkpt lat="44.31346393721192" lon="10.839715784614295"><ele>759.8</ele><time>2026-04-11T16:01:11Z</time></trkpt><trkpt lat="44.31344805717434" lon="10.839598446662098"><ele>761.4</ele><time>2026-04-11T16:01:12Z</time></trkpt><trkpt lat="44.31343091999008" lon="10.839474223907603"><ele>763.0</ele><time>2026-04-11T16:01:13Z</time></trkpt><trkpt lat="44.31341323973123" lon="10.83935684567137"><ele>761.4</ele><time>2026-04-11T16:01:14Z</time></trkpt><trkpt lat="44.31337928608789" lon="10.839239838139152"><ele>759.8</ele><time>2026-04-11T16:01:15Z</time></trkpt><trkpt lat="44.31332439407123" lon="10.839149259866915"><ele>758.2</ele><time>2026-04-11T16:01:16Z</time></trkpt><trkpt lat="44.313251919994585" lon="10.839089305970216"><ele>756.6</ele><time>2026-04-11T16:01:17Z</time></trkpt><trkpt lat="44.31319025054198" lon="10.839004880385342"><ele>755.0</ele><time>2026-04-11T16:01:18Z</time></trkpt><trkpt lat="44.31310028435399" lon="10.838910709107374"><ele>762.0</ele><time>2026-04-11T16:01:19Z</time></trkpt><trkpt lat="44.31297329827777" lon="10.838802002300527"><ele>769.0</ele><time>2026-04-11T16:01:20Z</time></trkpt><trkpt lat="44.312850035524896" lon="10.838664497162293"><ele>776.0</ele><time>2026-04-11T16:01:21Z</time></trkpt><trkpt lat="44.312724273703274" lon="10.83852799731621"><ele>771.6666666666667</ele><time>2026-04-11T16:01:22Z</time></trkpt><trkpt lat="44.31259680231899" lon="10.838401000918745"><ele>767.3333333333334</ele><time>2026-04-11T16:01:23Z</time></trkpt><trkpt lat="44.31246870525244" lon="10.83828232816944"><ele>763.0</ele><time>2026-04-11T16:01:24Z</time></trkpt><trkpt lat="44.31233791638704" lon="10.83818233410317"><ele>765.0</ele><time>2026-04-11T16:01:25Z</time></trkpt><trkpt lat="44.31223310833042" lon="10.838098327404925"><ele>767.0</ele><time>2026-04-11T16:01:26Z</time></trkpt><trkpt lat="44.312143633387414" lon="10.83801532986946"><ele>769.0</ele><time>2026-04-11T16:01:27Z</time></trkpt><trkpt lat="44.31205485158238" lon="10.837923504342625"><ele>771.0</ele><time>2026-04-11T16:01:28Z</time></trkpt><trkpt lat="44.3118831699243" lon="10.83769030544352"><ele>769.0</ele><time>2026-04-11T16:01:30Z</time></trkpt><trkpt lat="44.311806410015635" lon="10.837593557466226"><ele>767.0</ele><time>2026-04-11T16:01:31Z</time></trkpt><trkpt lat="44.31174665722075" lon="10.837502423311086"><ele>765.0</ele><time>2026-04-11T16:01:32Z</time></trkpt><trkpt lat="44.31167642110228" lon="10.837409423131954"><ele>763.0</ele><time>2026-04-11T16:01:33Z</time></trkpt><trkpt lat="44.31161329227965" lon="10.837333453461191"><ele>761.0</ele><time>2026-04-11T16:01:34Z</time></trkpt><trkpt lat="44.3115617845666" lon="10.837244179167373"><ele>761.0</ele><time>2026-04-11T16:01:35Z</time></trkpt><trkpt lat="44.3114942254019" lon="10.837167460974234"><ele>761.0</ele><time>2026-04-11T16:01:36Z</time></trkpt><trkpt lat="44.31143396665527" lon="10.837052634640076"><ele>761.0</ele><time>2026-04-11T16:01:37Z</time></trkpt><trkpt lat="44.311381337987406" lon="10.83694097110229"><ele>761.0</ele><time>2026-04-11T16:01:38Z</time></trkpt><trkpt lat="44.311322434471045" lon="10.83683400347268"><ele>761.0</ele><time>2026-04-11T16:01:39Z</time></trkpt><trkpt lat="44.31124908782552" lon="10.836738004450371"><ele>758.75</ele><time>2026-04-11T16:01:40Z</time></trkpt><trkpt lat="44.311163871480304" lon="10.836656588563926"><ele>756.5</ele><time>2026-04-11T16:01:41Z</time></trkpt><trkpt lat="44.311060715265086" lon="10.836578974855529"><ele>754.25</ele><time>2026-04-11T16:01:42Z</time></trkpt><trkpt lat="44.31096705655856" lon="10.83647469968889"><ele>752.0</ele><time>2026-04-11T16:01:43Z</time></trkpt><trkpt lat="44.31087275847007" lon="10.836384276036823"><ele>752.0</ele><time>2026-04-11T16:01:44Z</time></trkpt><trkpt lat="44.31078106609563" lon="10.836285139834162"><ele>752.0</ele><time>2026-04-11T16:01:45Z</time></trkpt><trkpt lat="44.310688323490176" lon="10.836163687205929"><ele>752.0</ele><time>2026-04-11T16:01:46Z</time></trkpt><trkpt lat="44.31060174790419" lon="10.836044003971878"><ele>752.0</ele><time>2026-04-11T16:01:47Z</time></trkpt><trkpt lat="44.31051298291906" lon="10.835920220435778"><ele>753.6</ele><time>2026-04-11T16:01:48Z</time></trkpt><trkpt lat="44.31044524206123" lon="10.835806508182097"><ele>755.2</ele><time>2026-04-11T16:01:49Z</time></trkpt><trkpt lat="44.31038713851376" lon="10.835712222911154"><ele>756.8</ele><time>2026-04-11T16:01:50Z</time></trkpt><trkpt lat="44.31033368545506" lon="10.835636071022238"><ele>758.4</ele><time>2026-04-11T16:01:51Z</time></trkpt><trkpt lat="44.31025569010114" lon="10.835574606405748"><ele>760.0</ele><time>2026-04-11T16:01:52Z</time></trkpt><trkpt lat="44.310176538678846" lon="10.835493625860183"><ele>760.0</ele><time>2026-04-11T16:01:53Z</time></trkpt><trkpt lat="44.31009290690035" lon="10.835419048724987"><ele>760.0</ele><time>2026-04-11T16:01:53.999Z</time></trkpt><trkpt lat="44.30999644431028" lon="10.835321576004244"><ele>760.0</ele><time>2026-04-11T16:01:54.999Z</time></trkpt><trkpt lat="44.309895787850095" lon="10.835236147499602"><ele>760.0</ele><time>2026-04-11T16:01:55.999Z</time></trkpt><trkpt lat="44.309792041276026" lon="10.83514149148435"><ele>762.2</ele><time>2026-04-11T16:01:56.999Z</time></trkpt><trkpt lat="44.30970407947457" lon="10.835027357187679"><ele>764.4</ele><time>2026-04-11T16:01:57.999Z</time></trkpt><trkpt lat="44.309611350415985" lon="10.834957404971014"><ele>766.5999999999999</ele><time>2026-04-11T16:01:58.999Z</time></trkpt><trkpt lat="44.30952409814055" lon="10.83486101659305"><ele>768.8</ele><time>2026-04-11T16:01:59.999Z</time></trkpt><trkpt lat="44.30943710787582" lon="10.834778185700813"><ele>771.0</ele><time>2026-04-11T16:02:00.999Z</time></trkpt><trkpt lat="44.30935068810501" lon="10.83469254000247"><ele>771.0</ele><time>2026-04-11T16:02:01.999Z</time></trkpt><trkpt lat="44.30926946984753" lon="10.83461466392009"><ele>771.0</ele><time>2026-04-11T16:02:02.999Z</time></trkpt><trkpt lat="44.309187768979854" lon="10.834532179797286"><ele>771.0</ele><time>2026-04-11T16:02:03.999Z</time></trkpt><trkpt lat="44.30911687450333" lon="10.834459535692304"><ele>771.0</ele><time>2026-04-11T16:02:04.999Z</time></trkpt><trkpt lat="44.309038978225885" lon="10.834408983857628"><ele>771.0</ele><time>2026-04-11T16:02:05.999Z</time></trkpt><trkpt lat="44.30897576745904" lon="10.834365870310984"><ele>771.0</ele><time>2026-04-11T16:02:06.999Z</time></trkpt><trkpt lat="44.30892929245049" lon="10.834301346841347"><ele>770.0</ele><time>2026-04-11T16:02:07.999Z</time></trkpt><trkpt lat="44.30886834928564" lon="10.834265001120427"><ele>769.0</ele><time>2026-04-11T16:02:08.999Z</time></trkpt><trkpt lat="44.30882794714219" lon="10.834153967247815"><ele>768.0</ele><time>2026-04-11T16:02:10.999Z</time></trkpt><trkpt lat="44.308809322507855" lon="10.834049977734441"><ele>767.0</ele><time>2026-04-11T16:02:15.999Z</time></trkpt><trkpt lat="44.308782101327104" lon="10.833960530142127"><ele>766.0</ele><time>2026-04-11T16:02:17.999Z</time></trkpt><trkpt lat="44.3086692016046" lon="10.833998223254262"><ele>765.0</ele><time>2026-04-11T16:02:18.999Z</time></trkpt><trkpt lat="44.30859703490161" lon="10.834007332959935"><ele>765.0</ele><time>2026-04-11T16:02:19.999Z</time></trkpt><trkpt lat="44.30851564481019" lon="10.834005704964861"><ele>765.0</ele><time>2026-04-11T16:02:20.999Z</time></trkpt><trkpt lat="44.3084001926392" lon="10.834010909208201"><ele>765.0</ele><time>2026-04-11T16:02:21.999Z</time></trkpt><trkpt lat="44.30829686471562" lon="10.834014033930185"><ele>765.0</ele><time>2026-04-11T16:02:22.999Z</time></trkpt><trkpt lat="44.30816128429297" lon="10.834009964459609"><ele>765.0</ele><time>2026-04-11T16:02:23.999Z</time></trkpt><trkpt lat="44.30801864821967" lon="10.83400948390887"><ele>764.75</ele><time>2026-04-11T16:02:24.999Z</time></trkpt><trkpt lat="44.30787382704053" lon="10.834012259237966"><ele>764.5</ele><time>2026-04-11T16:02:25.999Z</time></trkpt><trkpt lat="44.30773179113283" lon="10.83403909087913"><ele>764.25</ele><time>2026-04-11T16:02:26.999Z</time></trkpt><trkpt lat="44.30758298658476" lon="10.83409335111811"><ele>764.0</ele><time>2026-04-11T16:02:27.999Z</time></trkpt><trkpt lat="44.30742164536518" lon="10.83411707553708"><ele>764.0</ele><time>2026-04-11T16:02:28.999Z</time></trkpt><trkpt lat="44.307272830656366" lon="10.834143133492029"><ele>764.0</ele><time>2026-04-11T16:02:29.999Z</time></trkpt><trkpt lat="44.307134652615574" lon="10.834154750614978"><ele>764.0</ele><time>2026-04-11T16:02:30.999Z</time></trkpt><trkpt lat="44.30698569989406" lon="10.834143995650255"><ele>764.0</ele><time>2026-04-11T16:02:31.999Z</time></trkpt><trkpt lat="44.30684808620607" lon="10.834117732606527"><ele>763.25</ele><time>2026-04-11T16:02:32.999Z</time></trkpt><trkpt lat="44.30672596823778" lon="10.834075776052906"><ele>762.5</ele><time>2026-04-11T16:02:33.999Z</time></trkpt><trkpt lat="44.306595302928486" lon="10.83405148406922"><ele>761.75</ele><time>2026-04-11T16:02:34.999Z</time></trkpt><trkpt lat="44.30646179449669" lon="10.833996550303603"><ele>761.0</ele><time>2026-04-11T16:02:35.999Z</time></trkpt><trkpt lat="44.30633060189254" lon="10.833944018691893"><ele>760.0</ele><time>2026-04-11T16:02:36.999Z</time></trkpt><trkpt lat="44.30619617805517" lon="10.833887107850956"><ele>759.0</ele><time>2026-04-11T16:02:37.999Z</time></trkpt><trkpt lat="44.30606180507366" lon="10.83383528410774"><ele>758.0</ele><time>2026-04-11T16:02:38.999Z</time></trkpt><trkpt lat="44.305931249489205" lon="10.833776843051025"><ele>757.0</ele><time>2026-04-11T16:02:39.999Z</time></trkpt><trkpt lat="44.30579568694513" lon="10.833723181884796"><ele>757.0</ele><time>2026-04-11T16:02:40.999Z</time></trkpt><trkpt lat="44.3056603372075" lon="10.833671942618414"><ele>757.0</ele><time>2026-04-11T16:02:41.999Z</time></trkpt><trkpt lat="44.30551563445362" lon="10.833619253521254"><ele>757.0</ele><time>2026-04-11T16:02:42.999Z</time></trkpt><trkpt lat="44.305363633213254" lon="10.833542883474022"><ele>759.0</ele><time>2026-04-11T16:02:43.999Z</time></trkpt><trkpt lat="44.305197306516085" lon="10.833467939619354"><ele>761.0</ele><time>2026-04-11T16:02:44.999Z</time></trkpt><trkpt lat="44.305019596018305" lon="10.8334005416703"><ele>763.0</ele><time>2026-04-11T16:02:45.999Z</time></trkpt><trkpt lat="44.30487786138624" lon="10.8333071209243"><ele>762.5</ele><time>2026-04-11T16:02:46.999Z</time></trkpt><trkpt lat="44.30471973565795" lon="10.833220838346662"><ele>762.0</ele><time>2026-04-11T16:02:47.999Z</time></trkpt><trkpt lat="44.304591291508125" lon="10.833157972563468"><ele>761.5</ele><time>2026-04-11T16:02:48.999Z</time></trkpt><trkpt lat="44.30448208021897" lon="10.833056754969052"><ele>761.0</ele><time>2026-04-11T16:02:49.999Z</time></trkpt><trkpt lat="44.30437996752082" lon="10.832933958192408"><ele>761.0</ele><time>2026-04-11T16:02:50.999Z</time></trkpt><trkpt lat="44.30430634425774" lon="10.832789313075214"><ele>761.0</ele><time>2026-04-11T16:02:51.999Z</time></trkpt><trkpt lat="44.3042092016812" lon="10.832667116380852"><ele>761.0</ele><time>2026-04-11T16:02:52.999Z</time></trkpt><trkpt lat="44.30411669402519" lon="10.832532619973046"><ele>761.0</ele><time>2026-04-11T16:02:53.999Z</time></trkpt><trkpt lat="44.30402682426176" lon="10.83240205633204"><ele>763.75</ele><time>2026-04-11T16:02:54.999Z</time></trkpt><trkpt lat="44.30395234198878" lon="10.832258504055297"><ele>766.5</ele><time>2026-04-11T16:02:55.999Z</time></trkpt><trkpt lat="44.303862798443134" lon="10.832128441345375"><ele>769.25</ele><time>2026-04-11T16:02:56.999Z</time></trkpt><trkpt lat="44.30375725650783" lon="10.832007095231937"><ele>772.0</ele><time>2026-04-11T16:02:57.999Z</time></trkpt><trkpt lat="44.3036592720018" lon="10.831884316032577"><ele>773.75</ele><time>2026-04-11T16:02:58.999Z</time></trkpt><trkpt lat="44.30354889070657" lon="10.831761460179564"><ele>775.5</ele><time>2026-04-11T16:02:59.999Z</time></trkpt><trkpt lat="44.30343564994769" lon="10.831646691326528"><ele>777.25</ele><time>2026-04-11T16:03:00.999Z</time></trkpt><trkpt lat="44.30331956731212" lon="10.831537573373444"><ele>779.0</ele><time>2026-04-11T16:03:01.999Z</time></trkpt><trkpt lat="44.303205068790504" lon="10.831442439965427"><ele>779.0</ele><time>2026-04-11T16:03:02.998Z</time></trkpt><trkpt lat="44.3030876455716" lon="10.831370651006129"><ele>779.0</ele><time>2026-04-11T16:03:03.998Z</time></trkpt><trkpt lat="44.302970694672226" lon="10.831322732509934"><ele>779.0</ele><time>2026-04-11T16:03:04.998Z</time></trkpt><trkpt lat="44.302859588711726" lon="10.831285977862843"><ele>779.0</ele><time>2026-04-11T16:03:05.998Z</time></trkpt><trkpt lat="44.30276418017463" lon="10.831249568215208"><ele>780.4000000000001</ele><time>2026-04-11T16:03:06.998Z</time></trkpt><trkpt lat="44.30268249878178" lon="10.831197235195107"><ele>781.8</ele><time>2026-04-11T16:03:07.998Z</time></trkpt><trkpt lat="44.302619421572146" lon="10.83117153194195"><ele>783.2</ele><time>2026-04-11T16:03:08.998Z</time></trkpt><trkpt lat="44.302523797925424" lon="10.831127288322872"><ele>784.5999999999999</ele><time>2026-04-11T16:03:10.998Z</time></trkpt><trkpt lat="44.30237969113734" lon="10.831299262027484"><ele>786.0</ele><time>2026-04-11T16:03:12.998Z</time></trkpt><trkpt lat="44.30227020650911" lon="10.83136375414862"><ele>785.5999999999999</ele><time>2026-04-11T16:03:14.998Z</time></trkpt><trkpt lat="44.30213564126279" lon="10.831432656388575"><ele>785.2</ele><time>2026-04-11T16:03:17Z</time></trkpt><trkpt lat="44.30204601849746" lon="10.831478546486803"><ele>784.8</ele><time>2026-04-11T16:03:18Z</time></trkpt><trkpt lat="44.30198467978249" lon="10.83150995492664"><ele>784.4000000000001</ele><time>2026-04-11T16:03:19Z</time></trkpt><trkpt lat="44.301905434348505" lon="10.83155053249118"><ele>784.0</ele><time>2026-04-11T16:03:20Z</time></trkpt><trkpt lat="44.3018390151072" lon="10.831744438313658"><ele>783.9999999999999</ele><time>2026-04-11T16:03:22Z</time></trkpt><trkpt lat="44.301745728878906" lon="10.831701518755372"><ele>784.0</ele><time>2026-04-11T16:03:23.999Z</time></trkpt><trkpt lat="44.301679413657986" lon="10.831665404837535"><ele>784.0</ele><time>2026-04-11T16:03:24.999Z</time></trkpt><trkpt lat="44.301603067939496" lon="10.831630108047523"><ele>784.0</ele><time>2026-04-11T16:03:25.999Z</time></trkpt><trkpt lat="44.30151611601764" lon="10.83159290888112"><ele>783.9999999999999</ele><time>2026-04-11T16:03:26.999Z</time></trkpt><trkpt lat="44.30143498589997" lon="10.831555790677756"><ele>784.0</ele><time>2026-04-11T16:03:27.999Z</time></trkpt><trkpt lat="44.30134359610644" lon="10.831512297281316"><ele>784.8571428571429</ele><time>2026-04-11T16:03:28.999Z</time></trkpt><trkpt lat="44.30128112451425" lon="10.831488969518364"><ele>785.7142857142858</ele><time>2026-04-11T16:03:29.999Z</time></trkpt><trkpt lat="44.30120537881921" lon="10.831474651865543"><ele>786.5714285714286</ele><time>2026-04-11T16:03:30.999Z</time></trkpt><trkpt lat="44.30112120111522" lon="10.831471381981961"><ele>787.4285714285714</ele><time>2026-04-11T16:03:31.999Z</time></trkpt><trkpt lat="44.30105394405212" lon="10.831476740088387"><ele>788.2857142857143</ele><time>2026-04-11T16:03:32.999Z</time></trkpt><trkpt lat="44.30098315886221" lon="10.831486013277036"><ele>789.1428571428571</ele><time>2026-04-11T16:03:33.999Z</time></trkpt><trkpt lat="44.30091852329724" lon="10.831499161205361"><ele>790.0</ele><time>2026-04-11T16:03:34.999Z</time></trkpt><trkpt lat="44.30085221369975" lon="10.831522712009154"><ele>789.9999999999999</ele><time>2026-04-11T16:03:36Z</time></trkpt><trkpt lat="44.3007626712388" lon="10.831598771394551"><ele>790.0</ele><time>2026-04-11T16:03:38Z</time></trkpt><trkpt lat="44.300716117886786" lon="10.831685464007617"><ele>790.0</ele><time>2026-04-11T16:03:39Z</time></trkpt><trkpt lat="44.300694764406266" lon="10.831773302941597"><ele>790.0</ele><time>2026-04-11T16:03:40Z</time></trkpt><trkpt lat="44.30067678653553" lon="10.831941877200855"><ele>789.9999999999999</ele><time>2026-04-11T16:03:42Z</time></trkpt><trkpt lat="44.300690187201546" lon="10.832029342280583"><ele>790.0</ele><time>2026-04-11T16:03:43Z</time></trkpt><trkpt lat="44.30070083921585" lon="10.832122844017599"><ele>788.6</ele><time>2026-04-11T16:03:44Z</time></trkpt><trkpt lat="44.30069742970033" lon="10.83226163064068"><ele>787.2</ele><time>2026-04-11T16:03:46Z</time></trkpt><trkpt lat="44.30065075015203" lon="10.832405955646138"><ele>785.8</ele><time>2026-04-11T16:03:47.999Z</time></trkpt><trkpt lat="44.30062193607406" lon="10.832492878811152"><ele>784.4</ele><time>2026-04-11T16:03:48.999Z</time></trkpt><trkpt lat="44.300576629472204" lon="10.832610421208239"><ele>783.0</ele><time>2026-04-11T16:03:50.999Z</time></trkpt><trkpt lat="44.30050282574749" lon="10.832659900622021"><ele>786.2</ele><time>2026-04-11T16:03:52.999Z</time></trkpt><trkpt lat="44.300454938599046" lon="10.832758812704173"><ele>789.4</ele><time>2026-04-11T16:03:53.999Z</time></trkpt><trkpt lat="44.300354269159634" lon="10.832880544980897"><ele>792.6</ele><time>2026-04-11T16:03:55.999Z</time></trkpt><trkpt lat="44.30027441194227" lon="10.832931074915379"><ele>795.8000000000001</ele><time>2026-04-11T16:03:57.999Z</time></trkpt><trkpt lat="44.30018584339725" lon="10.832986400544414"><ele>799.0</ele><time>2026-04-11T16:03:59.999Z</time></trkpt><trkpt lat="44.30012601921017" lon="10.833091360081351"><ele>799.0</ele><time>2026-04-11T16:04:02.999Z</time></trkpt><trkpt lat="44.30008034087684" lon="10.833160560044625"><ele>799.0</ele><time>2026-04-11T16:04:03.999Z</time></trkpt><trkpt lat="44.29998709917229" lon="10.83325046154405"><ele>799.0</ele><time>2026-04-11T16:04:05.999Z</time></trkpt><trkpt lat="44.29989303622562" lon="10.833332333460751"><ele>799.0</ele><time>2026-04-11T16:04:07.999Z</time></trkpt><trkpt lat="44.29983445183364" lon="10.833401378715218"><ele>799.0</ele><time>2026-04-11T16:04:08.999Z</time></trkpt><trkpt lat="44.299753155858646" lon="10.833479776027898"><ele>802.4999999999999</ele><time>2026-04-11T16:04:09.999Z</time></trkpt><trkpt lat="44.299693351612824" lon="10.83354931894357"><ele>806.0</ele><time>2026-04-11T16:04:10.999Z</time></trkpt><trkpt lat="44.299638088656074" lon="10.83361103448659"><ele>809.5</ele><time>2026-04-11T16:04:11.999Z</time></trkpt><trkpt lat="44.299580557857816" lon="10.833666878027048"><ele>813.0</ele><time>2026-04-11T16:04:12.999Z</time></trkpt><trkpt lat="44.299512926352214" lon="10.83372719927848"><ele>816.4999999999999</ele><time>2026-04-11T16:04:13.999Z</time></trkpt><trkpt lat="44.299444310057616" lon="10.833765460275249"><ele>820.0</ele><time>2026-04-11T16:04:14.999Z</time></trkpt><trkpt lat="44.29937466524906" lon="10.833815697301539"><ele>820.0</ele><time>2026-04-11T16:04:15.999Z</time></trkpt><trkpt lat="44.29928046844244" lon="10.833897224241895"><ele>820.0</ele><time>2026-04-11T16:04:16.999Z</time></trkpt><trkpt lat="44.29921476097733" lon="10.833949658743235"><ele>820.0</ele><time>2026-04-11T16:04:17.999Z</time></trkpt><trkpt lat="44.29914260558985" lon="10.833983753316708"><ele>820.0</ele><time>2026-04-11T16:04:18.999Z</time></trkpt><trkpt lat="44.29904419653838" lon="10.834001776631304"><ele>820.0</ele><time>2026-04-11T16:04:20.999Z</time></trkpt><trkpt lat="44.29893928184585" lon="10.833987278230813"><ele>821.1666666666666</ele><time>2026-04-11T16:04:22.999Z</time></trkpt><trkpt lat="44.29887925301878" lon="10.83389912588062"><ele>822.3333333333333</ele><time>2026-04-11T16:04:24.999Z</time></trkpt><trkpt lat="44.298817494832946" lon="10.833840462475628"><ele>823.5</ele><time>2026-04-11T16:04:27.999Z</time></trkpt><trkpt lat="44.29876173421181" lon="10.833738346531522"><ele>824.6666666666667</ele><time>2026-04-11T16:04:30.999Z</time></trkpt><trkpt lat="44.29870485385506" lon="10.833651958387502"><ele>825.8333333333334</ele><time>2026-04-11T16:04:32.999Z</time></trkpt><trkpt lat="44.2986028236543" lon="10.833664865060417"><ele>827.0</ele><time>2026-04-11T16:04:35.999Z</time></trkpt><trkpt lat="44.29854398125955" lon="10.833697905085904"><ele>827.0000000000001</ele><time>2026-04-11T16:04:37.999Z</time></trkpt><trkpt lat="44.298499969015694" lon="10.833773233791984"><ele>827.0</ele><time>2026-04-11T16:04:39.999Z</time></trkpt><trkpt lat="44.29840049908672" lon="10.833767481195009"><ele>827.0</ele><time>2026-04-11T16:04:42.999Z</time></trkpt><trkpt lat="44.298322174326486" lon="10.833696094463699"><ele>827.0</ele><time>2026-04-11T16:04:45.999Z</time></trkpt><trkpt lat="44.298242285604026" lon="10.833658983955887"><ele>827.0000000000001</ele><time>2026-04-11T16:04:47.999Z</time></trkpt><trkpt lat="44.2981488947245" lon="10.83362860270386"><ele>827.0</ele><time>2026-04-11T16:04:50.999Z</time></trkpt><trkpt lat="44.298137313621964" lon="10.833527228426728"><ele>826.2</ele><time>2026-04-11T16:04:52.999Z</time></trkpt><trkpt lat="44.298099391015995" lon="10.833366862113765"><ele>825.4000000000001</ele><time>2026-04-11T16:04:54.999Z</time></trkpt><trkpt lat="44.29804728214254" lon="10.83320367717984"><ele>824.5999999999999</ele><time>2026-04-11T16:04:56.999Z</time></trkpt><trkpt lat="44.29793404380667" lon="10.833129767517105"><ele>823.8</ele><time>2026-04-11T16:04:58.999Z</time></trkpt><trkpt lat="44.29787029374345" lon="10.8331133846296"><ele>823.0</ele><time>2026-04-11T16:04:59.999Z</time></trkpt><trkpt lat="44.297806313980146" lon="10.83307366733304"><ele>824.4999999999999</ele><time>2026-04-11T16:05:00.999Z</time></trkpt><trkpt lat="44.29774357367223" lon="10.83302946096376"><ele>826.0</ele><time>2026-04-11T16:05:01.999Z</time></trkpt><trkpt lat="44.297693704232174" lon="10.832966534009671"><ele>827.5</ele><time>2026-04-11T16:05:02.999Z</time></trkpt><trkpt lat="44.29763352105667" lon="10.83292741727124"><ele>829.0</ele><time>2026-04-11T16:05:03.999Z</time></trkpt><trkpt lat="44.297544608802234" lon="10.83280665236863"><ele>830.4999999999999</ele><time>2026-04-11T16:05:05.998Z</time></trkpt><trkpt lat="44.2974969694444" lon="10.832733979093986"><ele>832.0</ele><time>2026-04-11T16:05:06.998Z</time></trkpt><trkpt lat="44.297446158584386" lon="10.832654354965559"><ele>832.8</ele><time>2026-04-11T16:05:07.998Z</time></trkpt><trkpt lat="44.297377244970576" lon="10.832539527675822"><ele>833.6</ele><time>2026-04-11T16:05:08.998Z</time></trkpt><trkpt lat="44.29731670672745" lon="10.83243072950938"><ele>834.4</ele><time>2026-04-11T16:05:09.998Z</time></trkpt><trkpt lat="44.297263118022094" lon="10.83233242699857"><ele>835.1999999999999</ele><time>2026-04-11T16:05:10.998Z</time></trkpt><trkpt lat="44.297194592404125" lon="10.832241737862095"><ele>836.0</ele><time>2026-04-11T16:05:11.998Z</time></trkpt><trkpt lat="44.29713277583515" lon="10.832159620228717"><ele>836.0</ele><time>2026-04-11T16:05:12.998Z</time></trkpt><trkpt lat="44.29705823775069" lon="10.83208989166013"><ele>836.0</ele><time>2026-04-11T16:05:13.998Z</time></trkpt><trkpt lat="44.296976334195634" lon="10.832047780013838"><ele>836.0</ele><time>2026-04-11T16:05:14.998Z</time></trkpt><trkpt lat="44.296892044884004" lon="10.831992971066141"><ele>836.0</ele><time>2026-04-11T16:05:15.998Z</time></trkpt><trkpt lat="44.29679063764573" lon="10.831943975386688"><ele>836.0</ele><time>2026-04-11T16:05:16.998Z</time></trkpt><trkpt lat="44.296689238740385" lon="10.831855021344113"><ele>837.75</ele><time>2026-04-11T16:05:17.998Z</time></trkpt><trkpt lat="44.29660354411978" lon="10.831721022659883"><ele>839.5</ele><time>2026-04-11T16:05:18.998Z</time></trkpt><trkpt lat="44.296521559558016" lon="10.83156699011812"><ele>841.25</ele><time>2026-04-11T16:05:19.998Z</time></trkpt><trkpt lat="44.296422187289224" lon="10.83142622270551"><ele>843.0</ele><time>2026-04-11T16:05:20.998Z</time></trkpt><trkpt lat="44.29635033447042" lon="10.831292180319771"><ele>843.0</ele><time>2026-04-11T16:05:22Z</time></trkpt><trkpt lat="44.296268040870544" lon="10.831172805820236"><ele>843.0</ele><time>2026-04-11T16:05:23Z</time></trkpt><trkpt lat="44.29619600316482" lon="10.831070713951549"><ele>843.0</ele><time>2026-04-11T16:05:24Z</time></trkpt><trkpt lat="44.29612594773741" lon="10.830976975491145"><ele>843.0</ele><time>2026-04-11T16:05:25Z</time></trkpt><trkpt lat="44.29605168194772" lon="10.830880753666225"><ele>843.0</ele><time>2026-04-11T16:05:26Z</time></trkpt><trkpt lat="44.296006583740855" lon="10.830812408557463"><ele>845.0</ele><time>2026-04-11T16:05:27Z</time></trkpt><trkpt lat="44.295969219959666" lon="10.83069742809896"><ele>847.0</ele><time>2026-04-11T16:05:29Z</time></trkpt><trkpt lat="44.29605719716307" lon="10.830607091866778"><ele>849.0</ele><time>2026-04-11T16:05:31Z</time></trkpt><trkpt lat="44.29611070690388" lon="10.83053234096986"><ele>851.0</ele><time>2026-04-11T16:05:32Z</time></trkpt><trkpt lat="44.29617831705337" lon="10.83044350196278"><ele>853.0</ele><time>2026-04-11T16:05:33Z</time></trkpt><trkpt lat="44.29627157644484" lon="10.830336316541898"><ele>853.0</ele><time>2026-04-11T16:05:34Z</time></trkpt><trkpt lat="44.29636810987052" lon="10.830240844827681"><ele>853.0</ele><time>2026-04-11T16:05:35Z</time></trkpt><trkpt lat="44.296460721142346" lon="10.830151925240333"><ele>853.0</ele><time>2026-04-11T16:05:36Z</time></trkpt><trkpt lat="44.296544395289466" lon="10.830068034992626"><ele>853.0</ele><time>2026-04-11T16:05:37Z</time></trkpt><trkpt lat="44.29661037435309" lon="10.829998995543116"><ele>853.0</ele><time>2026-04-11T16:05:38Z</time></trkpt><trkpt lat="44.2966647870468" lon="10.829908049304953"><ele>852.8333333333333</ele><time>2026-04-11T16:05:39Z</time></trkpt><trkpt lat="44.29673409316182" lon="10.82982877774245"><ele>852.6666666666666</ele><time>2026-04-11T16:05:40Z</time></trkpt><trkpt lat="44.2968091903048" lon="10.829743977038293"><ele>852.5</ele><time>2026-04-11T16:05:41Z</time></trkpt><trkpt lat="44.29688553945522" lon="10.829685142246532"><ele>852.3333333333333</ele><time>2026-04-11T16:05:42Z</time></trkpt><trkpt lat="44.29694791631824" lon="10.829620089416201"><ele>852.1666666666666</ele><time>2026-04-11T16:05:43Z</time></trkpt><trkpt lat="44.297005565769155" lon="10.829562645188188"><ele>852.0</ele><time>2026-04-11T16:05:44Z</time></trkpt><trkpt lat="44.297070232400955" lon="10.829505062883271"><ele>852.0</ele><time>2026-04-11T16:05:46Z</time></trkpt><trkpt lat="44.297128279483836" lon="10.82945371232358"><ele>852.0</ele><time>2026-04-11T16:05:48Z</time></trkpt><trkpt lat="44.29710891064712" lon="10.829270348948906"><ele>852.0</ele><time>2026-04-11T16:05:49Z</time></trkpt><trkpt lat="44.2971945044" lon="10.829238197804921"><ele>852.0</ele><time>2026-04-11T16:05:51Z</time></trkpt><trkpt lat="44.29724874128349" lon="10.8291680750343"><ele>852.0</ele><time>2026-04-11T16:05:53Z</time></trkpt><trkpt lat="44.29722595646823" lon="10.82907152026122"><ele>852.0</ele><time>2026-04-11T16:05:55Z</time></trkpt><trkpt lat="44.29714130750663" lon="10.82892428015591"><ele>851.4000000000001</ele><time>2026-04-11T16:05:57Z</time></trkpt><trkpt lat="44.29708065635512" lon="10.828857493233981"><ele>850.8000000000001</ele><time>2026-04-11T16:05:58Z</time></trkpt><trkpt lat="44.29700300212609" lon="10.828794999518225"><ele>850.2</ele><time>2026-04-11T16:05:59Z</time></trkpt><trkpt lat="44.29694071243013" lon="10.828735073472755"><ele>849.6</ele><time>2026-04-11T16:06:00Z</time></trkpt><trkpt lat="44.29688127269495" lon="10.828682510430053"><ele>849.0</ele><time>2026-04-11T16:06:00.999Z</time></trkpt><trkpt lat="44.29693040651281" lon="10.828459364568722"><ele>841.0</ele><time>2026-04-11T16:06:11.999Z</time></trkpt><trkpt lat="44.29694300046401" lon="10.828371435172189"><ele>841.0</ele><time>2026-04-11T16:06:14.999Z</time></trkpt></trkseg></trk></gpx>